Observation data for Fort Lewis CO on 01/19/2019      Previous  Date  Next       Current Mesonet Observations  Soil Data  Daily Summary Page  Observations in Plain Language
KFL1 190600Z 00008KT M12/M17 A3025 RMK A01 T11221169  RH  068%=      5-min Rain = 0
KFL1 190601Z 00008KT M12/M17 A3025 RMK A01 T11201168  RH  068%=      5-min Rain = 0
KFL1 190602Z 00009KT M12/M17 A3025 RMK A01 T11181166  RH  068%=      5-min Rain = 0
KFL1 190603Z 00009KT M12/M16 A3025 RMK A01 T11151163  RH  068%=      5-min Rain = 0
KFL1 190604Z 01008KT M12/M17 A3025 RMK A01 T11151165  RH  067%=      5-min Rain = 0
KFL1 190605Z 01008KT M11/M16 A3025 RMK A01 T11141164  RH  066%=      5-min Rain = 0
KFL1 190606Z 01008KT M12/M17 A3025 RMK A01 T11161167  RH  066%=      5-min Rain = 0
KFL1 190607Z 01007KT M12/M17 A3025 RMK A01 T11151166  RH  066%=      5-min Rain = 0
KFL1 190608Z 00007KT M11/M16 A3025 RMK A01 T11121162  RH  066%=      5-min Rain = 0
KFL1 190609Z 00007KT M11/M16 A3025 RMK A01 T11101161  RH  066%=      5-min Rain = 0
KFL1 190610Z 36007KT M12/M17 A3025 RMK A01 T11161171  RH  064%=      5-min Rain = 0
KFL1 190611Z 36008KT M12/M17 A3025 RMK A01 T11201174  RH  064%=      5-min Rain = 0
KFL1 190612Z 01007KT M12/M17 A3025 RMK A01 T11211173  RH  066%=      5-min Rain = 0
KFL1 190613Z 02007KT M12/M17 A3025 RMK A01 T11201169  RH  067%=      5-min Rain = 0
KFL1 190614Z 01007KT M12/M17 A3025 RMK A01 T11171165  RH  067%=      5-min Rain = 0
KFL1 190615Z 01007KT M12/M17 A3026 RMK A01 T11211171  RH  066%=      5-min Rain = 0
KFL1 190616Z 02007KT M13/M18 A3026 RMK A01 T11261176  RH  066%=      5-min Rain = 0
KFL1 190617Z 02008KT M13/M18 A3026 RMK A01 T11301178  RH  067%=      5-min Rain = 0
KFL1 190618Z 02007KT M13/M18 A3026 RMK A01 T11301178  RH  068%=      5-min Rain = 0
KFL1 190619Z 03007KT M13/M18 A3026 RMK A01 T11301175  RH  069%=      5-min Rain = 0
KFL1 190620Z 03008KT M13/M17 A3026 RMK A01 T11261171  RH  069%=      5-min Rain = 0
KFL1 190621Z 03007KT M13/M18 A3026 RMK A01 T11311178  RH  068%=      5-min Rain = 0
KFL1 190622Z 03007KT M14/M19 A3026 RMK A01 T11371185  RH  067%=      5-min Rain = 0
KFL1 190623Z 03007KT M14/M19 A3026 RMK A01 T11421189  RH  067%=      5-min Rain = 0
KFL1 190624Z 03007KT M14/M19 A3026 RMK A01 T11421187  RH  069%=      5-min Rain = 0
KFL1 190625Z 03007KT M15/M19 A3026 RMK A01 T11451190  RH  069%=      5-min Rain = 0
KFL1 190626Z 02007KT M15/M19 A3026 RMK A01 T11491193  RH  069%=      5-min Rain = 0
KFL1 190627Z 00006KT M15/M19 A3026 RMK A01 T11491189  RH  071%=      5-min Rain = 0
KFL1 190628Z 35006KT M15/M18 A3026 RMK A01 T11451182  RH  073%=      5-min Rain = 0
KFL1 190629Z 36006KT M14/M18 A3026 RMK A01 T11411175  RH  075%=      5-min Rain = 0
KFL1 190630Z 36006KT M13/M16 A3026 RMK A01 T11321161  RH  079%=      5-min Rain = 0
KFL1 190631Z 01007KT M13/M16 A3026 RMK A01 T11301161  RH  078%=      5-min Rain = 0
KFL1 190632Z 02006KT M13/M16 A3026 RMK A01 T11291162  RH  076%=      5-min Rain = 0
KFL1 190633Z 01006KT M13/M16 A3026 RMK A01 T11271164  RH  074%=      5-min Rain = 0
KFL1 190634Z 01006KT M13/M17 A3026 RMK A01 T11271166  RH  072%=      5-min Rain = 0
KFL1 190635Z 01006KT M13/M17 A3026 RMK A01 T11311172  RH  071%=      5-min Rain = 0
KFL1 190636Z 00006KT M13/M17 A3026 RMK A01 T11321172  RH  072%=      5-min Rain = 0
KFL1 190637Z 00006KT M13/M17 A3026 RMK A01 T11311171  RH  072%=      5-min Rain = 0
KFL1 190638Z 00006KT M13/M17 A3026 RMK A01 T11301169  RH  072%=      5-min Rain = 0
KFL1 190639Z 01006KT M13/M17 A3026 RMK A01 T11281167  RH  072%=      5-min Rain = 0
KFL1 190640Z 00006KT M13/M17 A3026 RMK A01 T11271167  RH  072%=      5-min Rain = 0
KFL1 190641Z 01006KT M13/M17 A3026 RMK A01 T11271170  RH  071%=      5-min Rain = 0
KFL1 190642Z 02005KT M13/M17 A3027 RMK A01 T11291172  RH  070%=      5-min Rain = 0
KFL1 190643Z 02005KT M13/M18 A3027 RMK A01 T11301175  RH  069%=      5-min Rain = 0
KFL1 190644Z 01006KT M13/M18 A3027 RMK A01 T11331179  RH  069%=      5-min Rain = 0
KFL1 190645Z 01006KT M14/M18 A3027 RMK A01 T11391184  RH  069%=      5-min Rain = 0
KFL1 190646Z 01006KT M14/M18 A3027 RMK A01 T11401183  RH  070%=      5-min Rain = 0
KFL1 190647Z 35006KT M14/M18 A3027 RMK A01 T11371176  RH  073%=      5-min Rain = 0
KFL1 190648Z 35007KT M13/M16 A3027 RMK A01 T11291163  RH  076%=      5-min Rain = 0
KFL1 190649Z 34009KT M12/M16 A3027 RMK A01 T11231156  RH  076%=      5-min Rain = 0
KFL1 190650Z 34010KT M12/M16 A3027 RMK A01 T11201155  RH  075%=      5-min Rain = 0
KFL1 190651Z 34009KT M12/M15 A3027 RMK A01 T11151153  RH  074%=      5-min Rain = 0
KFL1 190652Z 34008KT M11/M15 A3027 RMK A01 T11091148  RH  073%=      5-min Rain = 0
KFL1 190653Z 34009KT M11/M15 A3027 RMK A01 T11051147  RH  071%=      5-min Rain = 0
KFL1 190654Z 34008KT M10/M15 A3027 RMK A01 T11031148  RH  070%=      5-min Rain = 0
KFL1 190655Z 33009KT M10/M15 A3027 RMK A01 T11011149  RH  068%=      5-min Rain = 0
KFL1 190656Z 33008KT M10/M15 A3027 RMK A01 T11011152  RH  066%=      5-min Rain = 0
KFL1 190657Z 34008KT M10/M15 A3027 RMK A01 T10971146  RH  067%=      5-min Rain = 0
KFL1 190658Z 33007KT M10/M16 A3027 RMK A01 T11011155  RH  064%=      5-min Rain = 0
KFL1 190659Z 33007KT M11/M16 A3027 RMK A01 T11081164  RH  063%=      5-min Rain = 0
KFL1 190700Z 33007KT M11/M17 A3027 RMK A01 T11121167  RH  064%=      5-min Rain = 0
KFL1 190701Z 33007KT M11/M16 A3027 RMK A01 T11111163  RH  066%=      5-min Rain = 0
KFL1 190702Z 34007KT M10/M15 A3027 RMK A01 T11031151  RH  068%=      5-min Rain = 0
KFL1 190703Z 34007KT M10/M16 A3027 RMK A01 T11031157  RH  065%=      5-min Rain = 0
KFL1 190704Z 35007KT M11/M17 A3027 RMK A01 T11131171  RH  062%=      5-min Rain = 0
KFL1 190705Z 35007KT M11/M17 A3027 RMK A01 T11131167  RH  064%=      5-min Rain = 0
KFL1 190706Z 35008KT M11/M16 A3027 RMK A01 T11101162  RH  065%=      5-min Rain = 0
KFL1 190707Z 35007KT M11/M16 A3027 RMK A01 T11091161  RH  066%=      5-min Rain = 0
KFL1 190708Z 35007KT M11/M16 A3027 RMK A01 T11111164  RH  065%=      5-min Rain = 0
KFL1 190709Z 35007KT M12/M17 A3027 RMK A01 T11151167  RH  065%=      5-min Rain = 0
KFL1 190710Z 35007KT M12/M18 A3027 RMK A01 T11221176  RH  064%=      5-min Rain = 0
KFL1 190711Z 35007KT M13/M18 A3027 RMK A01 T11281181  RH  064%=      5-min Rain = 0
KFL1 190712Z 35007KT M13/M17 A3027 RMK A01 T11251174  RH  067%=      5-min Rain = 0
KFL1 190713Z 34006KT M12/M17 A3027 RMK A01 T11201166  RH  069%=      5-min Rain = 0
KFL1 190714Z 34006KT M12/M17 A3027 RMK A01 T11201167  RH  068%=      5-min Rain = 0
KFL1 190715Z 35006KT M12/M17 A3027 RMK A01 T11201166  RH  069%=      5-min Rain = 0
KFL1 190716Z 34007KT M12/M16 A3027 RMK A01 T11161161  RH  069%=      5-min Rain = 0
KFL1 190717Z 34008KT M11/M16 A3027 RMK A01 T11101155  RH  069%=      5-min Rain = 0
KFL1 190718Z 33008KT M12/M17 A3027 RMK A01 T11161169  RH  065%=      5-min Rain = 0
KFL1 190719Z 33009KT M13/M18 A3027 RMK A01 T11271182  RH  063%=      5-min Rain = 0
KFL1 190720Z 33009KT M12/M17 A3027 RMK A01 T11241170  RH  069%=      5-min Rain = 0
KFL1 190721Z 32009KT M12/M16 A3027 RMK A01 T11181162  RH  070%=      5-min Rain = 0
KFL1 190722Z 33008KT M12/M17 A3027 RMK A01 T11231168  RH  069%=      5-min Rain = 0
KFL1 190723Z 34007KT M12/M16 A3027 RMK A01 T11211164  RH  070%=      5-min Rain = 0
KFL1 190724Z 35008KT M12/M17 A3027 RMK A01 T11241169  RH  069%=      5-min Rain = 0
KFL1 190725Z 36007KT M13/M17 A3028 RMK A01 T11281174  RH  069%=      5-min Rain = 0
KFL1 190726Z 00007KT M13/M17 A3028 RMK A01 T11291171  RH  070%=      5-min Rain = 0
KFL1 190727Z 36007KT M13/M17 A3028 RMK A01 T11271167  RH  072%=      5-min Rain = 0
KFL1 190728Z 36008KT M13/M17 A3028 RMK A01 T11271169  RH  071%=      5-min Rain = 0
KFL1 190729Z 36008KT M13/M17 A3028 RMK A01 T11301173  RH  070%=      5-min Rain = 0
KFL1 190730Z 35008KT M14/M18 A3028 RMK A01 T11391184  RH  069%=      5-min Rain = 0
KFL1 190731Z 34008KT M14/M18 A3028 RMK A01 T11421184  RH  070%=      5-min Rain = 0
KFL1 190732Z 34008KT M14/M18 A3028 RMK A01 T11441184  RH  072%=      5-min Rain = 0
KFL1 190733Z 35008KT M14/M18 A3028 RMK A01 T11431181  RH  073%=      5-min Rain = 0
KFL1 190734Z 35008KT M14/M17 A3028 RMK A01 T11391174  RH  075%=      5-min Rain = 0
KFL1 190735Z 36009KT M14/M17 A3028 RMK A01 T11371171  RH  075%=      5-min Rain = 0
KFL1 190736Z 35008KT M13/M17 A3028 RMK A01 T11341168  RH  076%=      5-min Rain = 0
KFL1 190737Z 35008KT M13/M17 A3028 RMK A01 T11301165  RH  075%=      5-min Rain = 0
KFL1 190738Z 35007KT M13/M16 A3028 RMK A01 T11271163  RH  074%=      5-min Rain = 0
KFL1 190739Z 35007KT M13/M17 A3028 RMK A01 T11281166  RH  073%=      5-min Rain = 0
KFL1 190740Z 35007KT M13/M17 A3028 RMK A01 T11291168  RH  072%=      5-min Rain = 0
KFL1 190741Z 36007KT M13/M17 A3028 RMK A01 T11281168  RH  072%=      5-min Rain = 0
KFL1 190742Z 00008KT M13/M17 A3028 RMK A01 T11281168  RH  072%=      5-min Rain = 0
KFL1 190743Z 00008KT M13/M17 A3028 RMK A01 T11281166  RH  073%=      5-min Rain = 0
KFL1 190744Z 36008KT M13/M17 A3028 RMK A01 T11261165  RH  073%=      5-min Rain = 0
KFL1 190745Z 36008KT M13/M16 A3028 RMK A01 T11251164  RH  073%=      5-min Rain = 0
KFL1 190746Z 36007KT M12/M16 A3028 RMK A01 T11241163  RH  073%=      5-min Rain = 0
KFL1 190747Z 00007KT M12/M16 A3028 RMK A01 T11221160  RH  073%=      5-min Rain = 0
KFL1 190748Z 01008KT M12/M16 A3028 RMK A01 T11221162  RH  072%=      5-min Rain = 0
KFL1 190749Z 01008KT M12/M17 A3028 RMK A01 T11231165  RH  071%=      5-min Rain = 0
KFL1 190750Z 01009KT M13/M18 A3028 RMK A01 T11311177  RH  068%=      5-min Rain = 0
KFL1 190751Z 00009KT M14/M18 A3028 RMK A01 T11371181  RH  070%=      5-min Rain = 0
KFL1 190752Z 35009KT M14/M18 A3028 RMK A01 T11421184  RH  071%=      5-min Rain = 0
KFL1 190753Z 36009KT M14/M18 A3028 RMK A01 T11421177  RH  075%=      5-min Rain = 0
KFL1 190754Z 35008KT M13/M16 A3028 RMK A01 T11321162  RH  078%=      5-min Rain = 0
KFL1 190755Z 36008KT M13/M16 A3028 RMK A01 T11261156  RH  078%=      5-min Rain = 0
KFL1 190756Z 00007KT M12/M16 A3028 RMK A01 T11231155  RH  077%=      5-min Rain = 0
KFL1 190757Z 00007KT M12/M15 A3028 RMK A01 T11201153  RH  076%=      5-min Rain = 0
KFL1 190758Z 00008KT M12/M15 A3028 RMK A01 T11181153  RH  075%=      5-min Rain = 0
KFL1 190759Z 00008KT M12/M16 A3028 RMK A01 T11211160  RH  073%=      5-min Rain = 0
KFL1 190800Z 00008KT M13/M17 A3028 RMK A01 T11281169  RH  071%=      5-min Rain = 0
KFL1 190801Z 00008KT M13/M17 A3028 RMK A01 T11341174  RH  071%=      5-min Rain = 0
KFL1 190802Z 01008KT M13/M17 A3028 RMK A01 T11331171  RH  073%=      5-min Rain = 0
KFL1 190803Z 01008KT M13/M17 A3028 RMK A01 T11331167  RH  075%=      5-min Rain = 0
KFL1 190804Z 01008KT M13/M17 A3028 RMK A01 T11341167  RH  076%=      5-min Rain = 0
KFL1 190805Z 01008KT M13/M16 A3028 RMK A01 T11331164  RH  077%=      5-min Rain = 0
KFL1 190806Z 00008KT M13/M16 A3028 RMK A01 T11311164  RH  077%=      5-min Rain = 0
KFL1 190807Z 36009KT M13/M17 A3028 RMK A01 T11331166  RH  076%=      5-min Rain = 0
KFL1 190808Z 35009KT M14/M18 A3028 RMK A01 T11421179  RH  074%=      5-min Rain = 0
KFL1 190809Z 35009KT M15/M19 A3028 RMK A01 T11511189  RH  073%=      5-min Rain = 0
KFL1 190810Z 34009KT M16/M19 A3028 RMK A01 T11551190  RH  075%=      5-min Rain = 0
KFL1 190811Z 34009KT M15/M18 A3028 RMK A01 T11531184  RH  077%=      5-min Rain = 0
KFL1 190812Z 34009KT M15/M18 A3028 RMK A01 T11491177  RH  080%=      5-min Rain = 0
KFL1 190813Z 35009KT M15/M17 A3028 RMK A01 T11461171  RH  081%=      5-min Rain = 0
KFL1 190814Z 35009KT M14/M16 A3028 RMK A01 T11401163  RH  083%=      5-min Rain = 0
KFL1 190815Z 35009KT M14/M16 A3028 RMK A01 T11361160  RH  082%=      5-min Rain = 0
KFL1 190816Z 35009KT M14/M16 A3028 RMK A01 T11361162  RH  081%=      5-min Rain = 0
KFL1 190817Z 35009KT M13/M16 A3028 RMK A01 T11341162  RH  080%=      5-min Rain = 0
KFL1 190818Z 35009KT M13/M16 A3028 RMK A01 T11331162  RH  079%=      5-min Rain = 0
KFL1 190819Z 35009KT M13/M16 A3028 RMK A01 T11321163  RH  078%=      5-min Rain = 0
KFL1 190820Z 35009KT M14/M17 A3028 RMK A01 T11351167  RH  077%=      5-min Rain = 0
KFL1 190821Z 35009KT M14/M17 A3028 RMK A01 T11391172  RH  076%=      5-min Rain = 0
KFL1 190822Z 35009KT M14/M17 A3028 RMK A01 T11391171  RH  077%=      5-min Rain = 0
KFL1 190823Z 36009KT M13/M16 A3028 RMK A01 T11341164  RH  078%=      5-min Rain = 0
KFL1 190824Z 00009KT M13/M17 A3028 RMK A01 T11341165  RH  078%=      5-min Rain = 0
KFL1 190825Z 01009KT M13/M17 A3028 RMK A01 T11341165  RH  077%=      5-min Rain = 0
KFL1 190826Z 01009KT M13/M16 A3028 RMK A01 T11321164  RH  077%=      5-min Rain = 0
KFL1 190827Z 02009KT M13/M16 A3028 RMK A01 T11251156  RH  078%=      5-min Rain = 0
KFL1 190828Z 03008KT M12/M15 A3028 RMK A01 T11191149  RH  079%=      5-min Rain = 0
KFL1 190829Z 02010KT M11/M14 A3028 RMK A01 T11131144  RH  078%=      5-min Rain = 0
KFL1 190830Z 02010KT M11/M14 A3028 RMK A01 T11081140  RH  077%=      5-min Rain = 0
KFL1 190831Z 02009KT M11/M14 A3028 RMK A01 T11071143  RH  075%=      5-min Rain = 0
KFL1 190832Z 03007KT M11/M15 A3028 RMK A01 T11091146  RH  074%=      5-min Rain = 0
KFL1 190833Z 03006KT M12/M16 A3028 RMK A01 T11151157  RH  071%=      5-min Rain = 0
KFL1 190834Z 02008KT M13/M18 A3028 RMK A01 T11281176  RH  067%=      5-min Rain = 0
KFL1 190835Z 02010KT M14/M19 A3028 RMK A01 T11391185  RH  068%=      5-min Rain = 0
KFL1 190836Z 01010KT M14/M18 A3028 RMK A01 T11431184  RH  071%=      5-min Rain = 0
KFL1 190837Z 00009KT M15/M18 A3028 RMK A01 T11451180  RH  075%=      5-min Rain = 0
KFL1 190838Z 01008KT M14/M17 A3028 RMK A01 T11421173  RH  078%=      5-min Rain = 0
KFL1 190839Z 01007KT M14/M16 A3028 RMK A01 T11361164  RH  080%=      5-min Rain = 0
KFL1 190840Z 01007KT M13/M16 A3028 RMK A01 T11341162  RH  080%=      5-min Rain = 0
KFL1 190841Z 02008KT M14/M17 A3028 RMK A01 T11361165  RH  078%=      5-min Rain = 0
KFL1 190842Z 03007KT M14/M16 A3028 RMK A01 T11351163  RH  079%=      5-min Rain = 0
KFL1 190843Z 03006KT M13/M15 A3029 RMK A01 T11261151  RH  082%=      5-min Rain = 0
KFL1 190844Z 03007KT M12/M15 A3029 RMK A01 T11191145  RH  081%=      5-min Rain = 0
KFL1 190845Z 03007KT M11/M14 A3029 RMK A01 T11141142  RH  080%=      5-min Rain = 0
KFL1 190846Z 02008KT M11/M14 A3029 RMK A01 T11111140  RH  079%=      5-min Rain = 0
KFL1 190847Z 03006KT M11/M14 A3029 RMK A01 T11071138  RH  078%=      5-min Rain = 0
KFL1 190848Z 03007KT M10/M14 A3029 RMK A01 T11031135  RH  077%=      5-min Rain = 0
KFL1 190849Z 03008KT M10/M13 A3029 RMK A01 T11001133  RH  077%=      5-min Rain = 0
KFL1 190850Z 04006KT M10/M14 A3029 RMK A01 T10991135  RH  075%=      5-min Rain = 0
KFL1 190851Z 05007KT M10/M14 A3029 RMK A01 T11001136  RH  075%=      5-min Rain = 0
KFL1 190852Z 05008KT M10/M14 A3029 RMK A01 T11011137  RH  075%=      5-min Rain = 0
KFL1 190853Z 05008KT M10/M14 A3029 RMK A01 T11041139  RH  075%=      5-min Rain = 0
KFL1 190854Z 04009KT M11/M14 A3029 RMK A01 T11051140  RH  076%=      5-min Rain = 0
KFL1 190855Z 04009KT M11/M14 A3029 RMK A01 T11051138  RH  076%=      5-min Rain = 0
KFL1 190856Z 04009KT M10/M14 A3029 RMK A01 T11031136  RH  077%=      5-min Rain = 0
KFL1 190857Z 04010KT M10/M14 A3029 RMK A01 T11031136  RH  077%=      5-min Rain = 0
KFL1 190858Z 03008KT M10/M14 A3029 RMK A01 T11031136  RH  077%=      5-min Rain = 0
KFL1 190859Z 03007KT M10/M14 A3029 RMK A01 T11011135  RH  076%=      5-min Rain = 0
KFL1 190900Z 04007KT M10/M14 A3029 RMK A01 T11011136  RH  075%=      5-min Rain = 0
KFL1 190901Z 04007KT M10/M14 A3029 RMK A01 T11031138  RH  076%=      5-min Rain = 0
KFL1 190902Z 04007KT M10/M14 A3029 RMK A01 T11041138  RH  076%=      5-min Rain = 0
KFL1 190903Z 04008KT M10/M14 A3029 RMK A01 T11031138  RH  076%=      5-min Rain = 0
KFL1 190904Z 05009KT M10/M14 A3029 RMK A01 T11021136  RH  076%=      5-min Rain = 0
KFL1 190905Z 05008KT M10/M14 A3029 RMK A01 T11041137  RH  076%=      5-min Rain = 0
KFL1 190906Z 04008KT M10/M14 A3029 RMK A01 T11041138  RH  076%=      5-min Rain = 0
KFL1 190907Z 04008KT M10/M14 A3029 RMK A01 T11021137  RH  076%=      5-min Rain = 0
KFL1 190908Z 04008KT M10/M14 A3029 RMK A01 T11001136  RH  075%=      5-min Rain = 0
KFL1 190909Z 03008KT M10/M14 A3029 RMK A01 T10991136  RH  074%=      5-min Rain = 0
KFL1 190910Z 03007KT M10/M14 A3029 RMK A01 T10981139  RH  072%=      5-min Rain = 0
KFL1 190911Z 04007KT M10/M14 A3029 RMK A01 T11001143  RH  071%=      5-min Rain = 0
KFL1 190912Z 05007KT M10/M14 A3029 RMK A01 T11001142  RH  071%=      5-min Rain = 0
KFL1 190913Z 05009KT M10/M14 A3029 RMK A01 T11021142  RH  072%=      5-min Rain = 0
KFL1 190914Z 04008KT M10/M14 A3029 RMK A01 T11031143  RH  073%=      5-min Rain = 0
KFL1 190915Z 04008KT M10/M14 A3029 RMK A01 T11031142  RH  073%=      5-min Rain = 0
KFL1 190916Z 03009KT M10/M14 A3029 RMK A01 T11031141  RH  074%=      5-min Rain = 0
KFL1 190917Z 03010KT M10/M14 A3029 RMK A01 T11021140  RH  074%=      5-min Rain = 0
KFL1 190918Z 03009KT M10/M14 A3029 RMK A01 T11001144  RH  071%=      5-min Rain = 0
KFL1 190919Z 04008KT M11/M16 A3029 RMK A01 T11071155  RH  068%=      5-min Rain = 0
KFL1 190920Z 04007KT M11/M15 A3029 RMK A01 T11061152  RH  069%=      5-min Rain = 0
KFL1 190921Z 05008KT M10/M14 A3029 RMK A01 T10951139  RH  070%=      5-min Rain = 0
KFL1 190922Z 05007KT M09/M14 A3029 RMK A01 T10881135  RH  069%=      5-min Rain = 0
KFL1 190923Z 05007KT M08/M13 A3029 RMK A01 T10831134  RH  067%=      5-min Rain = 0
KFL1 190924Z 05006KT M08/M13 A3029 RMK A01 T10781133  RH  065%=      5-min Rain = 0
KFL1 190925Z 05006KT M07/M13 A3029 RMK A01 T10741132  RH  063%=      5-min Rain = 0
KFL1 190926Z 05006KT M07/M14 A3029 RMK A01 T10731135  RH  061%=      5-min Rain = 0
KFL1 190927Z 05007KT M08/M14 A3029 RMK A01 T10751138  RH  060%=      5-min Rain = 0
KFL1 190928Z 05006KT M08/M15 A3029 RMK A01 T10831146  RH  060%=      5-min Rain = 0
KFL1 190929Z 04008KT M09/M15 A3029 RMK A01 T10911151  RH  062%=      5-min Rain = 0
KFL1 190930Z 04007KT M10/M15 A3029 RMK A01 T10961151  RH  064%=      5-min Rain = 0
KFL1 190931Z 03010KT M10/M15 A3029 RMK A01 T10991150  RH  066%=      5-min Rain = 0
KFL1 190932Z 03010KT M10/M15 A3029 RMK A01 T11001148  RH  068%=      5-min Rain = 0
KFL1 190933Z 03010KT M10/M15 A3029 RMK A01 T10991146  RH  069%=      5-min Rain = 0
KFL1 190934Z 03008KT M10/M15 A3029 RMK A01 T10951146  RH  067%=      5-min Rain = 0
KFL1 190935Z 03008KT M10/M16 A303 RMK A01 T11001156  RH  064%=      5-min Rain = 0
KFL1 190936Z 04007KT M11/M16 A3029 RMK A01 T11071163  RH  064%=      5-min Rain = 0
KFL1 190937Z 06005KT M11/M16 A3029 RMK A01 T11111163  RH  065%=      5-min Rain = 0
KFL1 190938Z 06006KT M11/M16 A3029 RMK A01 T11111159  RH  067%=      5-min Rain = 0
KFL1 190939Z 05006KT M11/M15 A3029 RMK A01 T11051152  RH  069%=      5-min Rain = 0
KFL1 190940Z 04007KT M10/M15 A3029 RMK A01 T11031151  RH  068%=      5-min Rain = 0
KFL1 190941Z 03007KT M11/M15 A3029 RMK A01 T11051152  RH  068%=      5-min Rain = 0
KFL1 190942Z 04009KT M11/M16 A3029 RMK A01 T11081155  RH  068%=      5-min Rain = 0
KFL1 190943Z 04011KT M11/M16 A3029 RMK A01 T11081155  RH  068%=      5-min Rain = 0
KFL1 190944Z 04009KT M11/M15 A3029 RMK A01 T11071153  RH  069%=      5-min Rain = 0
KFL1 190945Z 04009KT M10/M15 A3029 RMK A01 T11041150  RH  069%=      5-min Rain = 0
KFL1 190946Z 04008KT M10/M14 A3029 RMK A01 T10971144  RH  068%=      5-min Rain = 0
KFL1 190947Z 03007KT M09/M14 A3029 RMK A01 T10861139  RH  066%=      5-min Rain = 0
KFL1 190948Z 03008KT M09/M15 A3029 RMK A01 T10901152  RH  061%=      5-min Rain = 0
KFL1 190949Z 02008KT M10/M16 A303 RMK A01 T11001163  RH  060%=      5-min Rain = 0
KFL1 190950Z 01009KT M11/M17 A303 RMK A01 T11071166  RH  062%=      5-min Rain = 0
KFL1 190951Z 02008KT M12/M17 A303 RMK A01 T11151173  RH  062%=      5-min Rain = 0
KFL1 190952Z 04006KT M12/M18 A303 RMK A01 T11231178  RH  064%=      5-min Rain = 0
KFL1 190953Z 04006KT M13/M18 A3029 RMK A01 T11261177  RH  066%=      5-min Rain = 0
KFL1 190954Z 05004KT M13/M17 A3029 RMK A01 T11251172  RH  068%=      5-min Rain = 0
KFL1 190955Z 04006KT M12/M16 A3029 RMK A01 T11191163  RH  070%=      5-min Rain = 0
KFL1 190956Z 04007KT M12/M16 A303 RMK A01 T11181161  RH  070%=      5-min Rain = 0
KFL1 190957Z 03007KT M12/M16 A303 RMK A01 T11151158  RH  070%=      5-min Rain = 0
KFL1 190958Z 03006KT M11/M16 A303 RMK A01 T11131157  RH  070%=      5-min Rain = 0
KFL1 190959Z 04008KT M11/M16 A3029 RMK A01 T11111156  RH  069%=      5-min Rain = 0
KFL1 191000Z 04008KT M11/M15 A3029 RMK A01 T11081153  RH  069%=      5-min Rain = 0
KFL1 191001Z 05007KT M10/M15 A3029 RMK A01 T10961145  RH  068%=      5-min Rain = 0
KFL1 191002Z 05007KT M09/M15 A3029 RMK A01 T10941149  RH  064%=      5-min Rain = 0
KFL1 191003Z 05006KT M10/M16 A3029 RMK A01 T10991155  RH  063%=      5-min Rain = 0
KFL1 191004Z 04007KT M10/M16 A3029 RMK A01 T11041160  RH  064%=      5-min Rain = 0
KFL1 191005Z 04006KT M11/M16 A3029 RMK A01 T11071161  RH  064%=      5-min Rain = 0
KFL1 191006Z 03006KT M11/M16 A3029 RMK A01 T11081160  RH  065%=      5-min Rain = 0
KFL1 191007Z 04007KT M11/M16 A3029 RMK A01 T11091161  RH  066%=      5-min Rain = 0
KFL1 191008Z 05007KT M11/M16 A303 RMK A01 T11101160  RH  066%=      5-min Rain = 0
KFL1 191009Z 04008KT M11/M16 A303 RMK A01 T11131163  RH  067%=      5-min Rain = 0
KFL1 191010Z 03007KT M12/M16 A303 RMK A01 T11151163  RH  067%=      5-min Rain = 0
KFL1 191011Z 04006KT M12/M16 A303 RMK A01 T11151162  RH  068%=      5-min Rain = 0
KFL1 191012Z 04004KT M11/M16 A303 RMK A01 T11121158  RH  069%=      5-min Rain = 0
KFL1 191013Z 05003KT M11/M15 A303 RMK A01 T11071154  RH  068%=      5-min Rain = 0
KFL1 191014Z 05004KT M11/M16 A303 RMK A01 T11071160  RH  065%=      5-min Rain = 0
KFL1 191015Z 04005KT M11/M17 A303 RMK A01 T11131165  RH  065%=      5-min Rain = 0
KFL1 191016Z 04006KT M11/M16 A303 RMK A01 T11121161  RH  067%=      5-min Rain = 0
KFL1 191017Z 03007KT M11/M16 A303 RMK A01 T11091157  RH  067%=      5-min Rain = 0
KFL1 191018Z 02008KT M11/M17 A303 RMK A01 T11141169  RH  064%=      5-min Rain = 0
KFL1 191019Z 03006KT M12/M18 A303 RMK A01 T11221176  RH  064%=      5-min Rain = 0
KFL1 191020Z 04006KT M12/M17 A303 RMK A01 T11221170  RH  068%=      5-min Rain = 0
KFL1 191021Z 04006KT M12/M16 A303 RMK A01 T11161160  RH  070%=      5-min Rain = 0
KFL1 191022Z 03006KT M11/M16 A303 RMK A01 T11131158  RH  069%=      5-min Rain = 0
KFL1 191023Z 03007KT M11/M16 A303 RMK A01 T11091156  RH  068%=      5-min Rain = 0
KFL1 191024Z 02009KT M11/M16 A303 RMK A01 T11091160  RH  067%=      5-min Rain = 0
KFL1 191025Z 03009KT M12/M17 A303 RMK A01 T11171170  RH  065%=      5-min Rain = 0
KFL1 191026Z 03008KT M12/M17 A303 RMK A01 T11221174  RH  065%=      5-min Rain = 0
KFL1 191027Z 04007KT M12/M17 A303 RMK A01 T11201169  RH  067%=      5-min Rain = 0
KFL1 191028Z 04006KT M11/M16 A303 RMK A01 T11111159  RH  068%=      5-min Rain = 0
KFL1 191029Z 03005KT M10/M15 A303 RMK A01 T11021153  RH  066%=      5-min Rain = 0
KFL1 191030Z 06004KT M11/M17 A303 RMK A01 T11131174  RH  060%=      5-min Rain = 0
KFL1 191031Z 04007KT M13/M18 A303 RMK A01 T11251183  RH  062%=      5-min Rain = 0
KFL1 191032Z 04009KT M12/M17 A303 RMK A01 T11221171  RH  067%=      5-min Rain = 0
KFL1 191033Z 03008KT M12/M16 A303 RMK A01 T11171164  RH  068%=      5-min Rain = 0
KFL1 191034Z 03008KT M11/M16 A303 RMK A01 T11111158  RH  068%=      5-min Rain = 0
KFL1 191035Z 04007KT M12/M17 A303 RMK A01 T11161168  RH  065%=      5-min Rain = 0
KFL1 191036Z 05007KT M12/M17 A303 RMK A01 T11201170  RH  066%=      5-min Rain = 0
KFL1 191037Z 05006KT M11/M16 A303 RMK A01 T11111158  RH  069%=      5-min Rain = 0
KFL1 191038Z 06006KT M10/M15 A303 RMK A01 T11021149  RH  069%=      5-min Rain = 0
KFL1 191039Z 05006KT M09/M14 A303 RMK A01 T10941144  RH  067%=      5-min Rain = 0
KFL1 191040Z 04006KT M09/M15 A303 RMK A01 T10911147  RH  064%=      5-min Rain = 0
KFL1 191041Z 04010KT M10/M16 A303 RMK A01 T10971156  RH  062%=      5-min Rain = 0
KFL1 191042Z 03010KT M10/M16 A303 RMK A01 T11011160  RH  062%=      5-min Rain = 0
KFL1 191043Z 02009KT M10/M16 A303 RMK A01 T10991160  RH  061%=      5-min Rain = 0
KFL1 191044Z 01010KT M11/M18 A303 RMK A01 T11101175  RH  059%=      5-min Rain = 0
KFL1 191045Z 02007KT M13/M19 A303 RMK A01 T11261190  RH  059%=      5-min Rain = 0
KFL1 191046Z 02006KT M14/M19 A303 RMK A01 T11351191  RH  062%=      5-min Rain = 0
KFL1 191047Z 03006KT M14/M19 A303 RMK A01 T11381188  RH  066%=      5-min Rain = 0
KFL1 191048Z 04006KT M14/M19 A303 RMK A01 T11411188  RH  068%=      5-min Rain = 0
KFL1 191049Z 04006KT M14/M19 A303 RMK A01 T11441190  RH  068%=      5-min Rain = 0
KFL1 191050Z 04007KT M14/M18 A303 RMK A01 T11411183  RH  070%=      5-min Rain = 0
KFL1 191051Z 03008KT M13/M16 A303 RMK A01 T11251161  RH  074%=      5-min Rain = 0
KFL1 191052Z 03007KT M11/M15 A303 RMK A01 T11081146  RH  073%=      5-min Rain = 0
KFL1 191053Z 03006KT M10/M15 A303 RMK A01 T11001147  RH  069%=      5-min Rain = 0
KFL1 191054Z 04006KT M10/M15 A303 RMK A01 T10981152  RH  065%=      5-min Rain = 0
KFL1 191055Z 05006KT M09/M15 A303 RMK A01 T10941151  RH  063%=      5-min Rain = 0
KFL1 191056Z 05006KT M09/M15 A303 RMK A01 T10871146  RH  062%=      5-min Rain = 0
KFL1 191057Z 04006KT M08/M14 A303 RMK A01 T10811143  RH  061%=      5-min Rain = 0
KFL1 191058Z 03004KT M08/M16 A303 RMK A01 T10841155  RH  057%=      5-min Rain = 0
KFL1 191059Z 02006KT M11/M18 A303 RMK A01 T11051181  RH  054%=      5-min Rain = 0
KFL1 191100Z 02006KT M12/M19 A303 RMK A01 T11231193  RH  056%=      5-min Rain = 0
KFL1 191101Z 02006KT M13/M19 A303 RMK A01 T11321194  RH  060%=      5-min Rain = 0
KFL1 191102Z 02006KT M13/M19 A303 RMK A01 T11331187  RH  064%=      5-min Rain = 0
KFL1 191103Z 02007KT M13/M18 A303 RMK A01 T11321180  RH  067%=      5-min Rain = 0
KFL1 191104Z 03006KT M13/M18 A303 RMK A01 T11321179  RH  068%=      5-min Rain = 0
KFL1 191105Z 03006KT M14/M18 A303 RMK A01 T11351184  RH  067%=      5-min Rain = 0
KFL1 191106Z 03006KT M14/M19 A3029 RMK A01 T11421192  RH  066%=      5-min Rain = 0
KFL1 191107Z 04006KT M15/M19 A3029 RMK A01 T11451193  RH  067%=      5-min Rain = 0
KFL1 191108Z 04006KT M15/M19 A3029 RMK A01 T11471193  RH  068%=      5-min Rain = 0
KFL1 191109Z 03006KT M14/M18 A3029 RMK A01 T11431182  RH  072%=      5-min Rain = 0
KFL1 191110Z 02007KT M13/M17 A3029 RMK A01 T11311165  RH  076%=      5-min Rain = 0
KFL1 191111Z 01007KT M12/M16 A303 RMK A01 T11221159  RH  074%=      5-min Rain = 0
KFL1 191112Z 01006KT M13/M18 A303 RMK A01 T11291178  RH  067%=      5-min Rain = 0
KFL1 191113Z 00005KT M15/M20 A303 RMK A01 T11451198  RH  064%=      5-min Rain = 0
KFL1 191114Z 36004KT M16/M21 A3029 RMK A01 T11551207  RH  064%=      5-min Rain = 0
KFL1 191115Z 35003KT M16/M21 A3029 RMK A01 T11591207  RH  066%=      5-min Rain = 0
KFL1 191116Z 00003KT M16/M20 A3029 RMK A01 T11571199  RH  070%=      5-min Rain = 0
KFL1 191117Z 03005KT M15/M18 A3029 RMK A01 T11471183  RH  074%=      5-min Rain = 0
KFL1 191118Z 02006KT M13/M16 A3029 RMK A01 T11321164  RH  077%=      5-min Rain = 0
KFL1 191119Z 02007KT M13/M16 A3029 RMK A01 T11261161  RH  075%=      5-min Rain = 0
KFL1 191120Z 01007KT M13/M17 A3029 RMK A01 T11311174  RH  070%=      5-min Rain = 0
KFL1 191121Z 01007KT M14/M19 A3029 RMK A01 T11401187  RH  067%=      5-min Rain = 0
KFL1 191122Z 03006KT M14/M19 A303 RMK A01 T11421186  RH  069%=      5-min Rain = 0
KFL1 191123Z 01006KT M13/M17 A303 RMK A01 T11321172  RH  072%=      5-min Rain = 0
KFL1 191124Z 00006KT M13/M17 A303 RMK A01 T11271167  RH  072%=      5-min Rain = 0
KFL1 191125Z 00005KT M13/M18 A303 RMK A01 T11291175  RH  068%=      5-min Rain = 0
KFL1 191126Z 00005KT M13/M18 A303 RMK A01 T11311179  RH  067%=      5-min Rain = 0
KFL1 191127Z 01005KT M14/M19 A303 RMK A01 T11381188  RH  066%=      5-min Rain = 0
KFL1 191128Z 02007KT M14/M20 A303 RMK A01 T11441195  RH  065%=      5-min Rain = 0
KFL1 191129Z 02008KT M15/M20 A303 RMK A01 T11491196  RH  067%=      5-min Rain = 0
KFL1 191130Z 02008KT M14/M18 A303 RMK A01 T11401182  RH  071%=      5-min Rain = 0
KFL1 191131Z 01007KT M13/M17 A303 RMK A01 T11321172  RH  072%=      5-min Rain = 0
KFL1 191132Z 00006KT M13/M18 A303 RMK A01 T11331178  RH  069%=      5-min Rain = 0
KFL1 191133Z 35006KT M14/M19 A303 RMK A01 T11411189  RH  067%=      5-min Rain = 0
KFL1 191134Z 34005KT M15/M19 A303 RMK A01 T11461194  RH  067%=      5-min Rain = 0
KFL1 191135Z 34005KT M15/M20 A303 RMK A01 T11501196  RH  068%=      5-min Rain = 0
KFL1 191136Z 34005KT M15/M20 A303 RMK A01 T11531197  RH  069%=      5-min Rain = 0
KFL1 191137Z 34005KT M15/M19 A303 RMK A01 T11521193  RH  071%=      5-min Rain = 0
KFL1 191138Z 34005KT M15/M19 A303 RMK A01 T11521191  RH  072%=      5-min Rain = 0
KFL1 191139Z 34005KT M15/M19 A303 RMK A01 T11501188  RH  073%=      5-min Rain = 0
KFL1 191140Z 34006KT M16/M20 A303 RMK A01 T11561197  RH  071%=      5-min Rain = 0
KFL1 191141Z 34005KT M16/M20 A303 RMK A01 T11601200  RH  071%=      5-min Rain = 0
KFL1 191142Z 33005KT M16/M20 A303 RMK A01 T11641203  RH  072%=      5-min Rain = 0
KFL1 191143Z 33005KT M16/M20 A3031 RMK A01 T11631201  RH  073%=      5-min Rain = 0
KFL1 191144Z 33005KT M17/M21 A3031 RMK A01 T11671206  RH  072%=      5-min Rain = 0
KFL1 191145Z 32005KT M17/M21 A3031 RMK A01 T11691206  RH  073%=      5-min Rain = 0
KFL1 191146Z 31005KT M17/M20 A3031 RMK A01 T11671201  RH  075%=      5-min Rain = 0
KFL1 191147Z 31004KT M17/M20 A3031 RMK A01 T11651197  RH  076%=      5-min Rain = 0
KFL1 191148Z 31004KT M16/M19 A3031 RMK A01 T11621193  RH  077%=      5-min Rain = 0
KFL1 191149Z 29005KT M16/M19 A3031 RMK A01 T11601192  RH  077%=      5-min Rain = 0
KFL1 191150Z 29005KT M16/M19 A3031 RMK A01 T11611193  RH  076%=      5-min Rain = 0
KFL1 191151Z 30005KT M16/M19 A3031 RMK A01 T11601193  RH  076%=      5-min Rain = 0
KFL1 191152Z 30005KT M16/M19 A3031 RMK A01 T11601193  RH  076%=      5-min Rain = 0
KFL1 191153Z 30005KT M16/M20 A3031 RMK A01 T11631197  RH  075%=      5-min Rain = 0
KFL1 191154Z 30005KT M17/M20 A3031 RMK A01 T11671204  RH  073%=      5-min Rain = 0
KFL1 191155Z 31005KT M17/M21 A3031 RMK A01 T11691205  RH  074%=      5-min Rain = 0
KFL1 191156Z 31005KT M17/M20 A3031 RMK A01 T11701204  RH  075%=      5-min Rain = 0
KFL1 191157Z 31005KT M17/M21 A3031 RMK A01 T11711205  RH  075%=      5-min Rain = 0
KFL1 191158Z 31005KT M17/M21 A3031 RMK A01 T11721206  RH  075%=      5-min Rain = 0
KFL1 191159Z 31005KT M17/M21 A3031 RMK A01 T11731206  RH  075%=      5-min Rain = 0
KFL1 191200Z 31005KT M18/M21 A3031 RMK A01 T11771211  RH  075%=      5-min Rain = 0
KFL1 191201Z 31004KT M18/M21 A3031 RMK A01 T11791212  RH  075%=      5-min Rain = 0
KFL1 191202Z 31005KT M18/M21 A3031 RMK A01 T11791211  RH  076%=      5-min Rain = 0
KFL1 191203Z 31005KT M18/M20 A3031 RMK A01 T11751203  RH  078%=      5-min Rain = 0
KFL1 191204Z 31005KT M17/M20 A3031 RMK A01 T11731202  RH  078%=      5-min Rain = 0
KFL1 191205Z 32005KT M18/M21 A3031 RMK A01 T11751206  RH  077%=      5-min Rain = 0
KFL1 191206Z 31005KT M18/M21 A3031 RMK A01 T11771208  RH  077%=      5-min Rain = 0
KFL1 191207Z 31005KT M18/M21 A3031 RMK A01 T11771208  RH  077%=      5-min Rain = 0
KFL1 191208Z 31005KT M18/M21 A3031 RMK A01 T11791211  RH  076%=      5-min Rain = 0
KFL1 191209Z 32005KT M18/M21 A3031 RMK A01 T11801212  RH  076%=      5-min Rain = 0
KFL1 191210Z 31005KT M18/M20 A3031 RMK A01 T11761204  RH  079%=      5-min Rain = 0
KFL1 191211Z 31005KT M17/M19 A3031 RMK A01 T11691194  RH  081%=      5-min Rain = 0
KFL1 191212Z 31004KT M17/M19 A3031 RMK A01 T11661192  RH  080%=      5-min Rain = 0
KFL1 191213Z 31004KT M16/M19 A3031 RMK A01 T11641192  RH  079%=      5-min Rain = 0
KFL1 191214Z 32004KT M17/M20 A3031 RMK A01 T11651195  RH  078%=      5-min Rain = 0
KFL1 191215Z 33004KT M16/M19 A3031 RMK A01 T11641194  RH  077%=      5-min Rain = 0
KFL1 191216Z 33004KT M16/M19 A3031 RMK A01 T11581188  RH  078%=      5-min Rain = 0
KFL1 191217Z 32004KT M15/M18 A3031 RMK A01 T11541183  RH  078%=      5-min Rain = 0
KFL1 191218Z 32004KT M15/M18 A3031 RMK A01 T11511181  RH  078%=      5-min Rain = 0
KFL1 191219Z 32004KT M15/M19 A3031 RMK A01 T11521186  RH  075%=      5-min Rain = 0
KFL1 191220Z 32004KT M16/M19 A3031 RMK A01 T11561193  RH  073%=      5-min Rain = 0
KFL1 191221Z 33004KT M16/M19 A3031 RMK A01 T11561193  RH  074%=      5-min Rain = 0
KFL1 191222Z 33004KT M16/M19 A3031 RMK A01 T11551189  RH  075%=      5-min Rain = 0
KFL1 191223Z 36004KT M15/M18 A3031 RMK A01 T11481179  RH  077%=      5-min Rain = 0
KFL1 191224Z 01005KT M14/M17 A3031 RMK A01 T11391169  RH  078%=      5-min Rain = 0
KFL1 191225Z 01005KT M13/M16 A3031 RMK A01 T11331164  RH  078%=      5-min Rain = 0
KFL1 191226Z 02005KT M13/M16 A3031 RMK A01 T11291162  RH  077%=      5-min Rain = 0
KFL1 191227Z 02005KT M13/M17 A3031 RMK A01 T11311170  RH  072%=      5-min Rain = 0
KFL1 191228Z 02005KT M14/M18 A3031 RMK A01 T11391183  RH  069%=      5-min Rain = 0
KFL1 191229Z 01006KT M14/M19 A3031 RMK A01 T11441191  RH  068%=      5-min Rain = 0
KFL1 191230Z 01005KT M15/M20 A3031 RMK A01 T11501196  RH  068%=      5-min Rain = 0
KFL1 191231Z 01005KT M15/M20 A3031 RMK A01 T11531198  RH  068%=      5-min Rain = 0
KFL1 191232Z 01004KT M15/M19 A3031 RMK A01 T11531193  RH  071%=      5-min Rain = 0
KFL1 191233Z 01004KT M15/M19 A3031 RMK A01 T11491186  RH  073%=      5-min Rain = 0
KFL1 191234Z 01004KT M15/M18 A3031 RMK A01 T11451180  RH  074%=      5-min Rain = 0
KFL1 191235Z 01005KT M14/M18 A3031 RMK A01 T11431180  RH  073%=      5-min Rain = 0
KFL1 191236Z 01005KT M15/M19 A3031 RMK A01 T11451186  RH  071%=      5-min Rain = 0
KFL1 191237Z 02004KT M15/M19 A3031 RMK A01 T11501193  RH  070%=      5-min Rain = 0
KFL1 191238Z 02004KT M15/M19 A3031 RMK A01 T11491190  RH  071%=      5-min Rain = 0
KFL1 191239Z 02004KT M14/M18 A3031 RMK A01 T11431178  RH  075%=      5-min Rain = 0
KFL1 191240Z 03004KT M13/M17 A3031 RMK A01 T11341167  RH  076%=      5-min Rain = 0
KFL1 191241Z 03004KT M13/M17 A3031 RMK A01 T11321170  RH  073%=      5-min Rain = 0
KFL1 191242Z 03004KT M13/M18 A3031 RMK A01 T11341176  RH  071%=      5-min Rain = 0
KFL1 191243Z 03004KT M14/M18 A3031 RMK A01 T11351179  RH  070%=      5-min Rain = 0
KFL1 191244Z 03003KT M13/M18 A3031 RMK A01 T11341177  RH  070%=      5-min Rain = 0
KFL1 191245Z 02003KT M13/M17 A3031 RMK A01 T11291170  RH  072%=      5-min Rain = 0
KFL1 191246Z 02003KT M13/M17 A3031 RMK A01 T11261167  RH  072%=      5-min Rain = 0
KFL1 191247Z 02003KT M12/M17 A3031 RMK A01 T11241166  RH  071%=      5-min Rain = 0
KFL1 191248Z 02002KT M12/M16 A3031 RMK A01 T11201164  RH  070%=      5-min Rain = 0
KFL1 191249Z 04002KT M12/M16 A3031 RMK A01 T11171162  RH  069%=      5-min Rain = 0
KFL1 191250Z 03003KT M12/M17 A3031 RMK A01 T11171166  RH  067%=      5-min Rain = 0
KFL1 191251Z 03003KT M13/M18 A3031 RMK A01 T11261181  RH  063%=      5-min Rain = 0
KFL1 191252Z 04003KT M13/M19 A3031 RMK A01 T11311186  RH  064%=      5-min Rain = 0
KFL1 191253Z 05004KT M13/M18 A3031 RMK A01 T11311179  RH  067%=      5-min Rain = 0
KFL1 191254Z 06005KT M13/M17 A3031 RMK A01 T11251169  RH  069%=      5-min Rain = 0
KFL1 191255Z 05006KT M12/M16 A3031 RMK A01 T11171162  RH  069%=      5-min Rain = 0
KFL1 191256Z 05006KT M11/M16 A3031 RMK A01 T11111159  RH  068%=      5-min Rain = 0
KFL1 191257Z 05005KT M11/M16 A3031 RMK A01 T11071158  RH  066%=      5-min Rain = 0
KFL1 191258Z 06004KT M10/M16 A3031 RMK A01 T11041159  RH  064%=      5-min Rain = 0
KFL1 191259Z 05005KT M10/M16 A3031 RMK A01 T11021159  RH  063%=      5-min Rain = 0
KFL1 191300Z 05005KT M10/M16 A3031 RMK A01 T10991158  RH  062%=      5-min Rain = 0
KFL1 191301Z 05005KT M10/M16 A3031 RMK A01 T10961156  RH  062%=      5-min Rain = 0
KFL1 191302Z 05004KT M10/M16 A3031 RMK A01 T10951157  RH  061%=      5-min Rain = 0
KFL1 191303Z 05005KT M09/M16 A3031 RMK A01 T10921155  RH  060%=      5-min Rain = 0
KFL1 191304Z 05005KT M09/M16 A3031 RMK A01 T10921155  RH  060%=      5-min Rain = 0
KFL1 191305Z 05004KT M09/M16 A3031 RMK A01 T10901155  RH  059%=      5-min Rain = 0
KFL1 191306Z 04004KT M09/M16 A3031 RMK A01 T10901160  RH  057%=      5-min Rain = 0
KFL1 191307Z 04005KT M10/M17 A3031 RMK A01 T10981172  RH  055%=      5-min Rain = 0
KFL1 191308Z 05005KT M11/M18 A3031 RMK A01 T11091182  RH  055%=      5-min Rain = 0
KFL1 191309Z 05005KT M12/M19 A3031 RMK A01 T11171188  RH  055%=      5-min Rain = 0
KFL1 191310Z 05005KT M12/M19 A3031 RMK A01 T11201186  RH  058%=      5-min Rain = 0
KFL1 191311Z 05006KT M12/M18 A3032 RMK A01 T11191180  RH  061%=      5-min Rain = 0
KFL1 191312Z 04006KT M11/M17 A3032 RMK A01 T11141168  RH  064%=      5-min Rain = 0
KFL1 191313Z 04006KT M11/M16 A3032 RMK A01 T11061161  RH  064%=      5-min Rain = 0
KFL1 191314Z 04006KT M11/M17 A3032 RMK A01 T11121174  RH  060%=      5-min Rain = 0
KFL1 191315Z 04005KT M13/M19 A3032 RMK A01 T11271194  RH  057%=      5-min Rain = 0
KFL1 191316Z 05005KT M14/M21 A3032 RMK A01 T11421208  RH  057%=      5-min Rain = 0
KFL1 191317Z 05005KT M15/M21 A3032 RMK A01 T11461206  RH  060%=      5-min Rain = 0
KFL1 191318Z 05006KT M14/M19 A3032 RMK A01 T11421194  RH  065%=      5-min Rain = 0
KFL1 191319Z 04007KT M13/M18 A3032 RMK A01 T11311176  RH  069%=      5-min Rain = 0
KFL1 191320Z 04007KT M12/M16 A3032 RMK A01 T11191162  RH  070%=      5-min Rain = 0
KFL1 191321Z 03007KT M11/M16 A3032 RMK A01 T11081158  RH  067%=      5-min Rain = 0
KFL1 191322Z 03006KT M12/M19 A3032 RMK A01 T11241188  RH  059%=      5-min Rain = 0
KFL1 191323Z 04006KT M14/M21 A3032 RMK A01 T11441211  RH  057%=      5-min Rain = 0
KFL1 191324Z 04006KT M15/M22 A3032 RMK A01 T11541216  RH  059%=      5-min Rain = 0
KFL1 191325Z 04006KT M16/M22 A3032 RMK A01 T11621220  RH  061%=      5-min Rain = 0
KFL1 191326Z 04006KT M17/M22 A3032 RMK A01 T11681222  RH  063%=      5-min Rain = 0
KFL1 191327Z 04005KT M17/M22 A3032 RMK A01 T11721220  RH  066%=      5-min Rain = 0
KFL1 191328Z 05006KT M17/M21 A3032 RMK A01 T11681211  RH  070%=      5-min Rain = 0
KFL1 191329Z 05005KT M17/M21 A3032 RMK A01 T11651205  RH  071%=      5-min Rain = 0
KFL1 191330Z 04006KT M16/M19 A3032 RMK A01 T11571192  RH  075%=      5-min Rain = 0
KFL1 191331Z 04007KT M14/M17 A3032 RMK A01 T11431172  RH  078%=      5-min Rain = 0
KFL1 191332Z 04008KT M13/M16 A3032 RMK A01 T11301160  RH  078%=      5-min Rain = 0
KFL1 191333Z 04008KT M12/M16 A3032 RMK A01 T11181155  RH  074%=      5-min Rain = 0
KFL1 191334Z 03007KT M11/M16 A3032 RMK A01 T11101157  RH  068%=      5-min Rain = 0
KFL1 191335Z 03007KT M13/M19 A3032 RMK A01 T11271188  RH  060%=      5-min Rain = 0
KFL1 191336Z 05006KT M14/M20 A3032 RMK A01 T11421203  RH  060%=      5-min Rain = 0
KFL1 191337Z 05006KT M15/M20 A3032 RMK A01 T11451199  RH  063%=      5-min Rain = 0
KFL1 191338Z 04006KT M14/M19 A3032 RMK A01 T11391185  RH  068%=      5-min Rain = 0
KFL1 191339Z 03007KT M13/M17 A3033 RMK A01 T11281172  RH  070%=      5-min Rain = 0
KFL1 191340Z 03008KT M14/M19 A3033 RMK A01 T11371190  RH  064%=      5-min Rain = 0
KFL1 191341Z 04008KT M15/M21 A3033 RMK A01 T11531210  RH  062%=      5-min Rain = 0
KFL1 191342Z 06007KT M15/M20 A3032 RMK A01 T11491195  RH  068%=      5-min Rain = 0
KFL1 191343Z 06006KT M13/M17 A3032 RMK A01 T11341173  RH  072%=      5-min Rain = 0
KFL1 191344Z 06005KT M13/M17 A3032 RMK A01 T11251165  RH  072%=      5-min Rain = 0
KFL1 191345Z 04006KT M12/M16 A3033 RMK A01 T11191162  RH  070%=      5-min Rain = 0
KFL1 191346Z 04007KT M12/M16 A3033 RMK A01 T11151163  RH  068%=      5-min Rain = 0
KFL1 191347Z 04008KT M12/M17 A3032 RMK A01 T11151167  RH  065%=      5-min Rain = 0
KFL1 191348Z 05006KT M12/M17 A3032 RMK A01 T11161169  RH  065%=      5-min Rain = 0
KFL1 191349Z 04007KT M12/M17 A3033 RMK A01 T11151169  RH  064%=      5-min Rain = 0
KFL1 191350Z 04008KT M12/M17 A3033 RMK A01 T11151170  RH  064%=      5-min Rain = 0
KFL1 191351Z 04008KT M11/M17 A3033 RMK A01 T11121168  RH  063%=      5-min Rain = 0
KFL1 191352Z 04008KT M11/M17 A3033 RMK A01 T11111168  RH  063%=      5-min Rain = 0
KFL1 191353Z 04008KT M11/M17 A3033 RMK A01 T11091168  RH  062%=      5-min Rain = 0
KFL1 191354Z 04010KT M11/M17 A3033 RMK A01 T11101170  RH  061%=      5-min Rain = 0
KFL1 191355Z 03009KT M11/M17 A3033 RMK A01 T11101171  RH  061%=      5-min Rain = 0
KFL1 191356Z 04007KT M12/M18 A3033 RMK A01 T11161178  RH  060%=      5-min Rain = 0
KFL1 191357Z 05006KT M12/M18 A3033 RMK A01 T11231184  RH  060%=      5-min Rain = 0
KFL1 191358Z 05005KT M13/M19 A3033 RMK A01 T11271185  RH  062%=      5-min Rain = 0
KFL1 191359Z 04006KT M13/M19 A3033 RMK A01 T11341194  RH  061%=      5-min Rain = 0
KFL1 191400Z 04007KT M14/M19 A3033 RMK A01 T11361190  RH  064%=      5-min Rain = 0
KFL1 191401Z 04006KT M13/M18 A3033 RMK A01 T11311181  RH  066%=      5-min Rain = 0
KFL1 191402Z 05006KT M13/M18 A3033 RMK A01 T11261176  RH  066%=      5-min Rain = 0
KFL1 191403Z 04005KT M12/M17 A3033 RMK A01 T11201170  RH  066%=      5-min Rain = 0
KFL1 191404Z 05006KT M11/M17 A3033 RMK A01 T11141166  RH  065%=      5-min Rain = 0
KFL1 191405Z 04007KT M11/M16 A3033 RMK A01 T11071162  RH  064%=      5-min Rain = 0
KFL1 191406Z 03009KT M11/M16 A3033 RMK A01 T11051162  RH  063%=      5-min Rain = 0
KFL1 191407Z 03008KT M10/M16 A3033 RMK A01 T11031164  RH  061%=      5-min Rain = 0
KFL1 191408Z 04006KT M10/M17 A3033 RMK A01 T11041168  RH  060%=      5-min Rain = 0
KFL1 191409Z 04005KT M10/M17 A3033 RMK A01 T11031166  RH  060%=      5-min Rain = 0
KFL1 191410Z 04006KT M10/M17 A3033 RMK A01 T11031170  RH  058%=      5-min Rain = 0
KFL1 191411Z 03006KT M13/M20 A3033 RMK A01 T11251198  RH  054%=      5-min Rain = 0
KFL1 191412Z 05006KT M14/M21 A3033 RMK A01 T11411210  RH  056%=      5-min Rain = 0
KFL1 191413Z 05005KT M14/M20 A3033 RMK A01 T11411198  RH  062%=      5-min Rain = 0
KFL1 191414Z 03005KT M13/M17 A3033 RMK A01 T11251172  RH  068%=      5-min Rain = 0
KFL1 191415Z 02007KT M11/M16 A3033 RMK A01 T11121159  RH  068%=      5-min Rain = 0
KFL1 191416Z 03008KT M13/M19 A3033 RMK A01 T11251186  RH  061%=      5-min Rain = 0
KFL1 191417Z 05005KT M14/M21 A3033 RMK A01 T11441206  RH  059%=      5-min Rain = 0
KFL1 191418Z 05004KT M14/M19 A3033 RMK A01 T11421193  RH  065%=      5-min Rain = 0
KFL1 191419Z 02006KT M13/M17 A3033 RMK A01 T11321173  RH  071%=      5-min Rain = 0
KFL1 191420Z 01008KT M12/M16 A3033 RMK A01 T11191161  RH  071%=      5-min Rain = 0
KFL1 191421Z 02008KT M13/M19 A3033 RMK A01 T11311185  RH  064%=      5-min Rain = 0
KFL1 191422Z 03005KT M14/M20 A3033 RMK A01 T11421197  RH  063%=      5-min Rain = 0
KFL1 191423Z 04003KT M14/M19 A3033 RMK A01 T11431194  RH  065%=      5-min Rain = 0
KFL1 191424Z 04004KT M14/M19 A3033 RMK A01 T11421191  RH  067%=      5-min Rain = 0
KFL1 191425Z 03005KT M14/M19 A3033 RMK A01 T11411188  RH  067%=      5-min Rain = 0
KFL1 191426Z 03006KT M15/M20 A3033 RMK A01 T11481198  RH  066%=      5-min Rain = 0
KFL1 191427Z 03005KT M16/M21 A3034 RMK A01 T11571206  RH  066%=      5-min Rain = 0
KFL1 191428Z 03005KT M16/M21 A3034 RMK A01 T11601207  RH  067%=      5-min Rain = 0
KFL1 191429Z 03005KT M16/M20 A3034 RMK A01 T11611204  RH  069%=      5-min Rain = 0
KFL1 191430Z 03004KT M16/M20 A3034 RMK A01 T11611202  RH  071%=      5-min Rain = 0
KFL1 191431Z 04005KT M16/M20 A3034 RMK A01 T11581196  RH  072%=      5-min Rain = 0
KFL1 191432Z 02006KT M15/M18 A3034 RMK A01 T11451178  RH  076%=      5-min Rain = 0
KFL1 191433Z 02006KT M14/M17 A3034 RMK A01 T11371173  RH  074%=      5-min Rain = 0
KFL1 191434Z 02006KT M14/M19 A3034 RMK A01 T11431186  RH  069%=      5-min Rain = 0
KFL1 191435Z 03005KT M15/M20 A3034 RMK A01 T11511199  RH  067%=      5-min Rain = 0
KFL1 191436Z 05003KT M16/M21 A3033 RMK A01 T11571205  RH  067%=      5-min Rain = 0
KFL1 191437Z 02003KT M15/M19 A3033 RMK A01 T11531193  RH  071%=      5-min Rain = 0
KFL1 191438Z 02005KT M15/M18 A3033 RMK A01 T11451183  RH  073%=      5-min Rain = 0
KFL1 191439Z 02005KT M15/M19 A3033 RMK A01 T11481191  RH  070%=      5-min Rain = 0
KFL1 191440Z 03005KT M15/M20 A3033 RMK A01 T11521198  RH  068%=      5-min Rain = 0
KFL1 191441Z 02005KT M16/M21 A3034 RMK A01 T11581205  RH  067%=      5-min Rain = 0
KFL1 191442Z 03004KT M16/M21 A3034 RMK A01 T11601206  RH  068%=      5-min Rain = 0
KFL1 191443Z 03003KT M16/M20 A3033 RMK A01 T11571197  RH  071%=      5-min Rain = 0
KFL1 191444Z 03004KT M15/M18 A3033 RMK A01 T11461184  RH  073%=      5-min Rain = 0
KFL1 191445Z 02004KT M14/M19 A3034 RMK A01 T11441185  RH  071%=      5-min Rain = 0
KFL1 191446Z 01005KT M15/M19 A3034 RMK A01 T11451188  RH  070%=      5-min Rain = 0
KFL1 191447Z 01005KT M15/M19 A3034 RMK A01 T11461190  RH  069%=      5-min Rain = 0
KFL1 191448Z 03005KT M15/M19 A3034 RMK A01 T11451188  RH  070%=      5-min Rain = 0
KFL1 191449Z 04003KT M14/M18 A3034 RMK A01 T11381176  RH  073%=      5-min Rain = 0
KFL1 191450Z 03005KT M13/M17 A3034 RMK A01 T11281165  RH  074%=      5-min Rain = 0
KFL1 191451Z 02005KT M12/M17 A3034 RMK A01 T11241168  RH  070%=      5-min Rain = 0
KFL1 191452Z 02006KT M13/M18 A3034 RMK A01 T11271177  RH  066%=      5-min Rain = 0
KFL1 191453Z 03005KT M14/M19 A3034 RMK A01 T11381192  RH  064%=      5-min Rain = 0
KFL1 191454Z 01006KT M14/M20 A3034 RMK A01 T11441196  RH  065%=      5-min Rain = 0
KFL1 191455Z 02004KT M14/M19 A3034 RMK A01 T11431190  RH  067%=      5-min Rain = 0
KFL1 191456Z 03005KT M14/M18 A3034 RMK A01 T11381182  RH  069%=      5-min Rain = 0
KFL1 191457Z 02008KT M14/M18 A3034 RMK A01 T11361180  RH  069%=      5-min Rain = 0
KFL1 191458Z 02008KT M14/M19 A3035 RMK A01 T11391186  RH  068%=      5-min Rain = 0
KFL1 191459Z 02007KT M15/M19 A3035 RMK A01 T11451193  RH  067%=      5-min Rain = 0
KFL1 191500Z 03005KT M14/M18 A3034 RMK A01 T11381181  RH  070%=      5-min Rain = 0
KFL1 191501Z 03003KT M13/M17 A3034 RMK A01 T11261167  RH  071%=      5-min Rain = 0
KFL1 191502Z 03004KT M12/M17 A3034 RMK A01 T11221170  RH  067%=      5-min Rain = 0
KFL1 191503Z 02004KT M13/M18 A3034 RMK A01 T11281181  RH  064%=      5-min Rain = 0
KFL1 191504Z 02005KT M13/M19 A3034 RMK A01 T11331188  RH  063%=      5-min Rain = 0
KFL1 191505Z 02006KT M14/M19 A3034 RMK A01 T11361190  RH  064%=      5-min Rain = 0
KFL1 191506Z 02006KT M14/M19 A3034 RMK A01 T11411194  RH  064%=      5-min Rain = 0
KFL1 191507Z 04004KT M13/M18 A3034 RMK A01 T11301175  RH  069%=      5-min Rain = 0
KFL1 191508Z 05003KT M12/M16 A3034 RMK A01 T11161158  RH  071%=      5-min Rain = 0
KFL1 191509Z 05004KT M11/M15 A3035 RMK A01 T11071152  RH  070%=      5-min Rain = 0
KFL1 191510Z 05003KT M10/M15 A3034 RMK A01 T11021151  RH  067%=      5-min Rain = 0
KFL1 191511Z 04003KT M10/M15 A3034 RMK A01 T10971152  RH  064%=      5-min Rain = 0
KFL1 191512Z 05004KT M10/M15 A3034 RMK A01 T10951154  RH  062%=      5-min Rain = 0
KFL1 191513Z 04005KT M09/M16 A3035 RMK A01 T10941155  RH  061%=      5-min Rain = 0
KFL1 191514Z 02004KT M09/M16 A3035 RMK A01 T10931157  RH  060%=      5-min Rain = 0
KFL1 191515Z 02004KT M11/M18 A3035 RMK A01 T11051175  RH  056%=      5-min Rain = 0
KFL1 191516Z 03003KT M11/M18 A3035 RMK A01 T11121180  RH  057%=      5-min Rain = 0
KFL1 191517Z 03003KT M11/M18 A3035 RMK A01 T11141176  RH  060%=      5-min Rain = 0
KFL1 191518Z 04004KT M11/M17 A3035 RMK A01 T11071165  RH  063%=      5-min Rain = 0
KFL1 191519Z 03003KT M10/M16 A3035 RMK A01 T11011159  RH  062%=      5-min Rain = 0
KFL1 191520Z 02002KT M10/M17 A3035 RMK A01 T11021165  RH  060%=      5-min Rain = 0
KFL1 191521Z 01001KT M11/M18 A3035 RMK A01 T11141183  RH  057%=      5-min Rain = 0
KFL1 191522Z 02002KT M12/M18 A3035 RMK A01 T11171179  RH  060%=      5-min Rain = 0
KFL1 191523Z 02004KT M11/M17 A3035 RMK A01 T11121169  RH  063%=      5-min Rain = 0
KFL1 191524Z 03003KT M11/M17 A3035 RMK A01 T11101168  RH  062%=      5-min Rain = 0
KFL1 191525Z 04002KT M11/M16 A3035 RMK A01 T11051161  RH  064%=      5-min Rain = 0
KFL1 191526Z 07001KT M10/M16 A3036 RMK A01 T10991155  RH  064%=      5-min Rain = 0
KFL1 191527Z 04002KT M09/M15 A3036 RMK A01 T10941151  RH  063%=      5-min Rain = 0
KFL1 191528Z 04003KT M09/M15 A3036 RMK A01 T10901149  RH  062%=      5-min Rain = 0
KFL1 191529Z 02003KT M09/M15 A3036 RMK A01 T10881152  RH  060%=      5-min Rain = 0
KFL1 191530Z 04002KT M09/M16 A3036 RMK A01 T10901159  RH  057%=      5-min Rain = 0
KFL1 191531Z 11001KT M09/M16 A3036 RMK A01 T10921163  RH  056%=      5-min Rain = 0
KFL1 191532Z 08001KT M09/M16 A3036 RMK A01 T10931161  RH  058%=      5-min Rain = 0
KFL1 191533Z 03002KT M09/M16 A3036 RMK A01 T10891156  RH  058%=      5-min Rain = 0
KFL1 191534Z 03002KT M09/M16 A3036 RMK A01 T10871157  RH  057%=      5-min Rain = 0
KFL1 191535Z 06001KT M09/M16 A3036 RMK A01 T10881159  RH  056%=      5-min Rain = 0
KFL1 191536Z 05001KT M09/M15 A3036 RMK A01 T10861154  RH  058%=      5-min Rain = 0
KFL1 191537Z 04002KT M09/M16 A3036 RMK A01 T10851157  RH  056%=      5-min Rain = 0
KFL1 191538Z 04001KT M09/M17 A3036 RMK A01 T10921167  RH  055%=      5-min Rain = 0
KFL1 191539Z 05001KT M10/M17 A3036 RMK A01 T10951166  RH  056%=      5-min Rain = 0
KFL1 191540Z 06001KT M10/M16 A3036 RMK A01 T10951163  RH  058%=      5-min Rain = 0
KFL1 191541Z 04001KT M09/M16 A3036 RMK A01 T10891156  RH  059%=      5-min Rain = 0
KFL1 191542Z 00001KT M09/M17 A3036 RMK A01 T10931165  RH  056%=      5-min Rain = 0
KFL1 191543Z 35001KT M10/M17 A3036 RMK A01 T11031174  RH  056%=      5-min Rain = 0
KFL1 191544Z 32000KT M11/M18 A3036 RMK A01 T11101179  RH  057%=      5-min Rain = 0
KFL1 191545Z 23000KT M11/M17 A3036 RMK A01 T11121174  RH  060%=      5-min Rain = 0
KFL1 191546Z 23000KT M10/M16 A3036 RMK A01 T11041161  RH  063%=      5-min Rain = 0
KFL1 191547Z 33000KT M10/M15 A3036 RMK A01 T10961153  RH  063%=      5-min Rain = 0
KFL1 191548Z 33001KT M09/M15 A3036 RMK A01 T10901152  RH  061%=      5-min Rain = 0
KFL1 191549Z 34001KT M09/M15 A3036 RMK A01 T10861151  RH  059%=      5-min Rain = 0
KFL1 191550Z 34001KT M08/M15 A3036 RMK A01 T10841152  RH  058%=      5-min Rain = 0
KFL1 191551Z 34001KT M08/M15 A3036 RMK A01 T10821154  RH  056%=      5-min Rain = 0
KFL1 191552Z 35000KT M08/M15 A3036 RMK A01 T10801152  RH  056%=      5-min Rain = 0
KFL1 191553Z 00000KT M08/M15 A3036 RMK A01 T10751146  RH  057%=      5-min Rain = 0
KFL1 191554Z 33001KT M07/M14 A3037 RMK A01 T10711144  RH  056%=      5-min Rain = 0
KFL1 191555Z 33000KT M07/M15 A3037 RMK A01 T10701147  RH  054%=      5-min Rain = 0
KFL1 191556Z 00000KT M07/M15 A3037 RMK A01 T10671146  RH  054%=      5-min Rain = 0
KFL1 191557Z 25001KT M06/M14 A3037 RMK A01 T10631142  RH  053%=      5-min Rain = 0
KFL1 191558Z 23002KT M06/M14 A3037 RMK A01 T10591141  RH  052%=      5-min Rain = 0
KFL1 191559Z 27001KT M06/M14 A3037 RMK A01 T10561141  RH  051%=      5-min Rain = 0
KFL1 191600Z 28001KT M05/M14 A3037 RMK A01 T10531141  RH  050%=      5-min Rain = 0
KFL1 191601Z 24001KT M05/M14 A3037 RMK A01 T10531144  RH  049%=      5-min Rain = 0
KFL1 191602Z 24001KT M05/M15 A3037 RMK A01 T10541145  RH  049%=      5-min Rain = 0
KFL1 191603Z 26002KT M05/M15 A3037 RMK A01 T10541146  RH  048%=      5-min Rain = 0
KFL1 191604Z 26002KT M05/M15 A3037 RMK A01 T10521147  RH  048%=      5-min Rain = 0
KFL1 191605Z 23001KT M05/M15 A3037 RMK A01 T10531146  RH  048%=      5-min Rain = 0
KFL1 191606Z 24001KT M05/M14 A3037 RMK A01 T10501141  RH  049%=      5-min Rain = 0
KFL1 191607Z 23001KT M05/M14 A3037 RMK A01 T10491140  RH  049%=      5-min Rain = 0
KFL1 191608Z 22001KT M05/M14 A3037 RMK A01 T10461139  RH  048%=      5-min Rain = 0
KFL1 191609Z 24001KT M05/M14 A3037 RMK A01 T10461141  RH  047%=      5-min Rain = 0
KFL1 191610Z 21001KT M04/M14 A3037 RMK A01 T10431141  RH  046%=      5-min Rain = 0
KFL1 191611Z 19001KT M04/M14 A3037 RMK A01 T10421140  RH  046%=      5-min Rain = 0
KFL1 191612Z 18000KT M04/M14 A3037 RMK A01 T10401138  RH  047%=      5-min Rain = 0
KFL1 191613Z 00000KT M04/M14 A3037 RMK A01 T10371136  RH  046%=      5-min Rain = 0
KFL1 191614Z 21000KT M03/M13 A3037 RMK A01 T10321132  RH  046%=      5-min Rain = 0
KFL1 191615Z 23000KT M03/M14 A3037 RMK A01 T10321136  RH  044%=      5-min Rain = 0
KFL1 191616Z 24001KT M03/M14 A3038 RMK A01 T10311138  RH  043%=      5-min Rain = 0
KFL1 191617Z 23002KT M03/M14 A3038 RMK A01 T10321140  RH  043%=      5-min Rain = 0
KFL1 191618Z 22002KT M03/M14 A3037 RMK A01 T10331139  RH  044%=      5-min Rain = 0
KFL1 191619Z 22002KT M04/M14 A3037 RMK A01 T10361141  RH  044%=      5-min Rain = 0
KFL1 191620Z 21003KT M04/M14 A3037 RMK A01 T10371140  RH  045%=      5-min Rain = 0
KFL1 191621Z 19003KT M04/M14 A3037 RMK A01 T10381137  RH  046%=      5-min Rain = 0
KFL1 191622Z 17002KT M04/M13 A3037 RMK A01 T10351132  RH  047%=      5-min Rain = 0
KFL1 191623Z 18002KT M03/M13 A3037 RMK A01 T10331131  RH  047%=      5-min Rain = 0
KFL1 191624Z 17001KT M03/M13 A3037 RMK A01 T10321132  RH  046%=      5-min Rain = 0
KFL1 191625Z 19002KT M03/M13 A3037 RMK A01 T10321132  RH  046%=      5-min Rain = 0
KFL1 191626Z 21002KT M03/M13 A3038 RMK A01 T10321133  RH  045%=      5-min Rain = 0
KFL1 191627Z 21002KT M03/M14 A3038 RMK A01 T10321135  RH  045%=      5-min Rain = 0
KFL1 191628Z 21002KT M04/M14 A3038 RMK A01 T10351137  RH  045%=      5-min Rain = 0
KFL1 191629Z 22002KT M03/M13 A3038 RMK A01 T10331132  RH  046%=      5-min Rain = 0
KFL1 191630Z 22002KT M03/M13 A3038 RMK A01 T10331133  RH  046%=      5-min Rain = 0
KFL1 191631Z 21003KT M04/M14 A3038 RMK A01 T10351135  RH  046%=      5-min Rain = 0
KFL1 191632Z 19003KT M04/M14 A3038 RMK A01 T10371135  RH  047%=      5-min Rain = 0
KFL1 191633Z 21002KT M04/M13 A3038 RMK A01 T10351131  RH  048%=      5-min Rain = 0
KFL1 191634Z 22002KT M04/M13 A3038 RMK A01 T10351130  RH  048%=      5-min Rain = 0
KFL1 191635Z 23003KT M04/M13 A3038 RMK A01 T10361133  RH  047%=      5-min Rain = 0
KFL1 191636Z 21003KT M04/M14 A3038 RMK A01 T10391136  RH  047%=      5-min Rain = 0
KFL1 191637Z 19002KT M04/M13 A3038 RMK A01 T10371132  RH  048%=      5-min Rain = 0
KFL1 191638Z 19002KT M04/M13 A3038 RMK A01 T10351129  RH  048%=      5-min Rain = 0
KFL1 191639Z 19001KT M03/M13 A3038 RMK A01 T10321127  RH  048%=      5-min Rain = 0
KFL1 191640Z 21002KT M03/M13 A3038 RMK A01 T10311129  RH  047%=      5-min Rain = 0
KFL1 191641Z 21002KT M03/M13 A3038 RMK A01 T10321132  RH  046%=      5-min Rain = 0
KFL1 191642Z 21002KT M03/M13 A3038 RMK A01 T10331133  RH  046%=      5-min Rain = 0
KFL1 191643Z 19001KT M03/M13 A3038 RMK A01 T10331132  RH  046%=      5-min Rain = 0
KFL1 191644Z 19001KT M03/M13 A3038 RMK A01 T10331131  RH  047%=      5-min Rain = 0
KFL1 191645Z 25000KT M03/M13 A3038 RMK A01 T10301129  RH  047%=      5-min Rain = 0
KFL1 191646Z 30000KT M03/M13 A3038 RMK A01 T10291129  RH  046%=      5-min Rain = 0
KFL1 191647Z 18001KT M03/M13 A3038 RMK A01 T10281130  RH  045%=      5-min Rain = 0
KFL1 191648Z 21002KT M03/M13 A3038 RMK A01 T10261129  RH  045%=      5-min Rain = 0
KFL1 191649Z 23002KT M02/M13 A3038 RMK A01 T10241128  RH  045%=      5-min Rain = 0
KFL1 191650Z 23002KT M03/M13 A3038 RMK A01 T10271131  RH  045%=      5-min Rain = 0
KFL1 191651Z 20002KT M03/M13 A3038 RMK A01 T10291132  RH  045%=      5-min Rain = 0
KFL1 191652Z 15002KT M03/M13 A3038 RMK A01 T10291130  RH  046%=      5-min Rain = 0
KFL1 191653Z 13003KT M02/M12 A3038 RMK A01 T10241123  RH  047%=      5-min Rain = 0
KFL1 191654Z 14002KT M02/M12 A3038 RMK A01 T10221124  RH  046%=      5-min Rain = 0
KFL1 191655Z 13002KT M02/M13 A3038 RMK A01 T10201125  RH  045%=      5-min Rain = 0
KFL1 191656Z 13002KT M02/M13 A3038 RMK A01 T10201125  RH  044%=      5-min Rain = 0
KFL1 191657Z 14001KT M02/M12 A3038 RMK A01 T10191124  RH  045%=      5-min Rain = 0
KFL1 191658Z 18001KT M02/M13 A3038 RMK A01 T10191126  RH  044%=      5-min Rain = 0
KFL1 191659Z 22001KT M02/M13 A3038 RMK A01 T10191127  RH  044%=      5-min Rain = 0
KFL1 191700Z 25002KT M03/M13 A3038 RMK A01 T10251132  RH  044%=      5-min Rain = 0
KFL1 191701Z 24002KT M03/M13 A3038 RMK A01 T10301132  RH  045%=      5-min Rain = 0
KFL1 191702Z 26000KT M03/M13 A3038 RMK A01 T10301129  RH  046%=      5-min Rain = 0
KFL1 191703Z 04000KT M03/M13 A3038 RMK A01 T10261125  RH  046%=      5-min Rain = 0
KFL1 191704Z 08001KT M02/M13 A3038 RMK A01 T10241126  RH  045%=      5-min Rain = 0
KFL1 191705Z 09002KT M03/M13 A3038 RMK A01 T10251127  RH  045%=      5-min Rain = 0
KFL1 191706Z 10003KT M02/M12 A3038 RMK A01 T10231123  RH  046%=      5-min Rain = 0
KFL1 191707Z 10003KT M02/M12 A3038 RMK A01 T10211119  RH  047%=      5-min Rain = 0
KFL1 191708Z 11002KT M02/M12 A3038 RMK A01 T10161118  RH  046%=      5-min Rain = 0
KFL1 191709Z 10002KT M01/M12 A3038 RMK A01 T10111116  RH  045%=      5-min Rain = 0
KFL1 191710Z 15002KT M01/M12 A3038 RMK A01 T10091118  RH  043%=      5-min Rain = 0
KFL1 191711Z 17003KT M01/M12 A3038 RMK A01 T10081120  RH  042%=      5-min Rain = 0
KFL1 191712Z 17004KT M01/M12 A3038 RMK A01 T10091116  RH  044%=      5-min Rain = 0
KFL1 191713Z 18004KT M01/M12 A3038 RMK A01 T10081115  RH  044%=      5-min Rain = 0
KFL1 191714Z 17002KT M01/M12 A3038 RMK A01 T10081116  RH  044%=      5-min Rain = 0
KFL1 191715Z 17002KT M01/M12 A3038 RMK A01 T10061116  RH  043%=      5-min Rain = 0
KFL1 191716Z 16002KT M00/M12 A3038 RMK A01 T10041115  RH  043%=      5-min Rain = 0
KFL1 191717Z 15002KT M00/M12 A3038 RMK A01 T10031116  RH  043%=      5-min Rain = 0
KFL1 191718Z 16003KT M01/M12 A3038 RMK A01 T10061120  RH  042%=      5-min Rain = 0
KFL1 191719Z 15003KT M01/M12 A3038 RMK A01 T10071119  RH  042%=      5-min Rain = 0
KFL1 191720Z 15003KT M01/M12 A3038 RMK A01 T10071121  RH  042%=      5-min Rain = 0
KFL1 191721Z 15002KT M01/M12 A3038 RMK A01 T10071122  RH  041%=      5-min Rain = 0
KFL1 191722Z 16002KT M01/M12 A3038 RMK A01 T10061119  RH  042%=      5-min Rain = 0
KFL1 191723Z 16002KT M01/M12 A3038 RMK A01 T10061119  RH  042%=      5-min Rain = 0
KFL1 191724Z 15002KT M01/M12 A3038 RMK A01 T10051120  RH  041%=      5-min Rain = 0
KFL1 191725Z 14003KT M01/M12 A3038 RMK A01 T10061121  RH  041%=      5-min Rain = 0
KFL1 191726Z 15003KT M00/M12 A3038 RMK A01 T10031116  RH  042%=      5-min Rain = 0
KFL1 191727Z 16003KT M00/M12 A3038 RMK A01 T10031118  RH  041%=      5-min Rain = 0
KFL1 191728Z 15004KT M00/M12 A3038 RMK A01 T10021119  RH  041%=      5-min Rain = 0
KFL1 191729Z 16005KT M00/M11 A3038 RMK A01 T10021114  RH  042%=      5-min Rain = 0
KFL1 191730Z 16005KT M00/M11 A3038 RMK A01 T10011114  RH  042%=      5-min Rain = 0
KFL1 191731Z 16006KT M00/M12 A3038 RMK A01 T10021115  RH  042%=      5-min Rain = 0
KFL1 191732Z 15005KT M00/M12 A3038 RMK A01 T10041117  RH  042%=      5-min Rain = 0
KFL1 191733Z 15005KT M01/M12 A3038 RMK A01 T10051116  RH  043%=      5-min Rain = 0
KFL1 191734Z 14004KT M01/M12 A3038 RMK A01 T10051117  RH  043%=      5-min Rain = 0
KFL1 191735Z 14005KT M01/M12 A3038 RMK A01 T10071118  RH  043%=      5-min Rain = 0
KFL1 191736Z 15005KT M01/M12 A3038 RMK A01 T10071117  RH  043%=      5-min Rain = 0
KFL1 191737Z 14005KT M01/M12 A3038 RMK A01 T10051117  RH  042%=      5-min Rain = 0
KFL1 191738Z 15005KT M00/M12 A3038 RMK A01 T10041119  RH  041%=      5-min Rain = 0
KFL1 191739Z 15004KT M01/M12 A3038 RMK A01 T10061118  RH  042%=      5-min Rain = 0
KFL1 191740Z 14004KT M01/M12 A3038 RMK A01 T10061116  RH  043%=      5-min Rain = 0
KFL1 191741Z 15005KT M01/M11 A3038 RMK A01 T10061114  RH  044%=      5-min Rain = 0
KFL1 191742Z 15007KT M01/M11 A3038 RMK A01 T10051111  RH  044%=      5-min Rain = 0
KFL1 191743Z 15006KT M00/M11 A3038 RMK A01 T10041114  RH  043%=      5-min Rain = 0
KFL1 191744Z 14005KT M01/M12 A3038 RMK A01 T10051117  RH  043%=      5-min Rain = 0
KFL1 191745Z 14004KT M01/M12 A3038 RMK A01 T10061116  RH  043%=      5-min Rain = 0
KFL1 191746Z 15003KT M01/M12 A3038 RMK A01 T10071115  RH  044%=      5-min Rain = 0
KFL1 191747Z 15005KT M01/M12 A3038 RMK A01 T10061116  RH  043%=      5-min Rain = 0
KFL1 191748Z 14005KT M01/M12 A3038 RMK A01 T10081118  RH  043%=      5-min Rain = 0
KFL1 191749Z 14006KT M01/M12 A3038 RMK A01 T10071116  RH  043%=      5-min Rain = 0
KFL1 191750Z 15006KT M01/M11 A3038 RMK A01 T10081114  RH  044%=      5-min Rain = 0
KFL1 191751Z 15005KT M01/M11 A3038 RMK A01 T10071114  RH  044%=      5-min Rain = 0
KFL1 191752Z 15006KT M01/M12 A3038 RMK A01 T10091119  RH  043%=      5-min Rain = 0
KFL1 191753Z 15005KT M01/M12 A3038 RMK A01 T10081117  RH  043%=      5-min Rain = 0
KFL1 191754Z 15005KT M01/M12 A3038 RMK A01 T10081119  RH  043%=      5-min Rain = 0
KFL1 191755Z 15007KT M01/M12 A3038 RMK A01 T10071118  RH  043%=      5-min Rain = 0
KFL1 191756Z 15007KT M01/M12 A3038 RMK A01 T10061118  RH  042%=      5-min Rain = 0
KFL1 191757Z 15005KT M01/M12 A3038 RMK A01 T10051116  RH  043%=      5-min Rain = 0
KFL1 191758Z 15005KT M01/M12 A3038 RMK A01 T10051117  RH  042%=      5-min Rain = 0
KFL1 191759Z 14004KT M01/M12 A3038 RMK A01 T10071124  RH  041%=      5-min Rain = 0
KFL1 191800Z 14004KT M01/M12 A3038 RMK A01 T10061122  RH  041%=      5-min Rain = 0
KFL1 191801Z 13004KT M01/M13 A3038 RMK A01 T10071125  RH  041%=      5-min Rain = 0
KFL1 191802Z 14005KT M01/M12 A3038 RMK A01 T10081123  RH  042%=      5-min Rain = 0
KFL1 191803Z 14004KT M01/M12 A3038 RMK A01 T10091123  RH  042%=      5-min Rain = 0
KFL1 191804Z 14003KT M01/M13 A3038 RMK A01 T10091125  RH  041%=      5-min Rain = 0
KFL1 191805Z 14003KT M01/M12 A3039 RMK A01 T10091123  RH  042%=      5-min Rain = 0
KFL1 191806Z 14003KT M01/M12 A3038 RMK A01 T10081124  RH  041%=      5-min Rain = 0
KFL1 191807Z 10003KT M01/M13 A3038 RMK A01 T10081125  RH  041%=      5-min Rain = 0
KFL1 191808Z 11003KT M01/M12 A3038 RMK A01 T10061118  RH  042%=      5-min Rain = 0
KFL1 191809Z 12003KT M01/M12 A3038 RMK A01 T10061122  RH  041%=      5-min Rain = 0
KFL1 191810Z 12005KT M01/M12 A3038 RMK A01 T10051117  RH  043%=      5-min Rain = 0
KFL1 191811Z 11004KT M01/M11 A3038 RMK A01 T10051114  RH  044%=      5-min Rain = 0
KFL1 191812Z 11003KT M01/M12 A3038 RMK A01 T10051116  RH  043%=      5-min Rain = 0
KFL1 191813Z 12003KT M00/M12 A3038 RMK A01 T10031117  RH  042%=      5-min Rain = 0
KFL1 191814Z 12005KT M00/M12 A3038 RMK A01 T10041120  RH  041%=      5-min Rain = 0
KFL1 191815Z 12005KT M00/M12 A3038 RMK A01 T10041118  RH  042%=      5-min Rain = 0
KFL1 191816Z 13004KT M01/M11 A3038 RMK A01 T10051114  RH  043%=      5-min Rain = 0
KFL1 191817Z 14005KT M00/M11 A3038 RMK A01 T10031111  RH  044%=      5-min Rain = 0
KFL1 191818Z 15004KT M00/M11 A3038 RMK A01 T10041112  RH  044%=      5-min Rain = 0
KFL1 191819Z 13003KT M00/M11 A3038 RMK A01 T10031114  RH  043%=      5-min Rain = 0
KFL1 191820Z 13004KT M00/M12 A3038 RMK A01 T10041116  RH  042%=      5-min Rain = 0
KFL1 191821Z 13004KT M00/M11 A3038 RMK A01 T10031112  RH  044%=      5-min Rain = 0
KFL1 191822Z 12005KT M00/M11 A3037 RMK A01 T10041113  RH  044%=      5-min Rain = 0
KFL1 191823Z 13004KT M00/M11 A3037 RMK A01 T10031109  RH  045%=      5-min Rain = 0
KFL1 191824Z 14003KT M00/M11 A3037 RMK A01 T10041109  RH  045%=      5-min Rain = 0
KFL1 191825Z 13003KT M00/M11 A3038 RMK A01 T10031108  RH  045%=      5-min Rain = 0
KFL1 191826Z 12004KT M00/M11 A3038 RMK A01 T10021111  RH  044%=      5-min Rain = 0
KFL1 191827Z 13005KT M00/M11 A3038 RMK A01 T10021112  RH  043%=      5-min Rain = 0
KFL1 191828Z 14006KT M00/M11 A3038 RMK A01 T10011106  RH  045%=      5-min Rain = 0
KFL1 191829Z 14005KT 00/10 A3038 RMK A01 T00000-103  RH  046%=      5-min Rain = 0
KFL1 191830Z 14005KT 00/M10 A3038 RMK A01 T00011102  RH  046%=      5-min Rain = 0.01
KFL1 191831Z 15004KT 00/M10 A3038 RMK A01 T00041101  RH  045%=      5-min Rain = 0
KFL1 191832Z 13003KT 00/M10 A3038 RMK A01 T00041101  RH  045%=      5-min Rain = 0
KFL1 191833Z 14004KT 01/M11 A3038 RMK A01 T00051105  RH  044%=      5-min Rain = 0
KFL1 191834Z 14004KT 01/M10 A3037 RMK A01 T00051104  RH  044%=      5-min Rain = 0
KFL1 191835Z 13003KT 00/M11 A3037 RMK A01 T00031106  RH  044%=      5-min Rain = 0
KFL1 191836Z 14004KT 00/M11 A3037 RMK A01 T00041105  RH  044%=      5-min Rain = 0
KFL1 191837Z 14006KT 01/M10 A3037 RMK A01 T00051100  RH  045%=      5-min Rain = 0
KFL1 191838Z 14005KT 01/M10 A3037 RMK A01 T00061097  RH  046%=      5-min Rain = 0
KFL1 191839Z 15005KT 01/M10 A3037 RMK A01 T00071098  RH  045%=      5-min Rain = 0
KFL1 191840Z 15005KT 01/M10 A3037 RMK A01 T00101097  RH  045%=      5-min Rain = 0
KFL1 191841Z 15005KT 01/M09 A3037 RMK A01 T00121094  RH  045%=      5-min Rain = 0
KFL1 191842Z 13004KT 02/M10 A3037 RMK A01 T00151096  RH  044%=      5-min Rain = 0
KFL1 191843Z 15005KT 02/M09 A3037 RMK A01 T00151094  RH  044%=      5-min Rain = 0
KFL1 191844Z 16005KT 01/M09 A3036 RMK A01 T00141091  RH  046%=      5-min Rain = 0
KFL1 191845Z 15004KT 02/M09 A3036 RMK A01 T00161091  RH  045%=      5-min Rain = 0
KFL1 191846Z 16005KT 02/M09 A3036 RMK A01 T00191091  RH  044%=      5-min Rain = 0
KFL1 191847Z 18005KT 02/M09 A3036 RMK A01 T00181091  RH  044%=      5-min Rain = 0
KFL1 191848Z 18004KT 02/M10 A3036 RMK A01 T00191095  RH  043%=      5-min Rain = 0
KFL1 191849Z 18005KT 02/M10 A3036 RMK A01 T00191098  RH  042%=      5-min Rain = 0
KFL1 191850Z 19003KT 02/M10 A3036 RMK A01 T00211096  RH  042%=      5-min Rain = 0
KFL1 191851Z 19003KT 02/M10 A3036 RMK A01 T00211095  RH  042%=      5-min Rain = 0
KFL1 191852Z 22002KT 03/M09 A3036 RMK A01 T00251093  RH  042%=      5-min Rain = 0
KFL1 191853Z 20003KT 03/M10 A3036 RMK A01 T00251096  RH  040%=      5-min Rain = 0
KFL1 191854Z 20004KT 03/M09 A3036 RMK A01 T00261094  RH  041%=      5-min Rain = 0
KFL1 191855Z 20005KT 03/M09 A3036 RMK A01 T00261090  RH  042%=      5-min Rain = 0
KFL1 191856Z 20007KT 03/M09 A3036 RMK A01 T00261086  RH  043%=      5-min Rain = 0.01
KFL1 191857Z 20006KT 03/M09 A3036 RMK A01 T00261086  RH  044%=      5-min Rain = 0
KFL1 191858Z 20007KT 02/M09 A3036 RMK A01 T00241090  RH  043%=      5-min Rain = 0
KFL1 191859Z 21006KT 02/M09 A3036 RMK A01 T00241090  RH  043%=      5-min Rain = 0
KFL1 191900Z 21007KT 02/M09 A3036 RMK A01 T00221090  RH  043%=      5-min Rain = 0
KFL1 191901Z 21007KT 02/M09 A3036 RMK A01 T00211091  RH  043%=      5-min Rain = 0
KFL1 191902Z 20006KT 02/M09 A3036 RMK A01 T00191093  RH  043%=      5-min Rain = 0
KFL1 191903Z 20007KT 02/M09 A3036 RMK A01 T00191092  RH  044%=      5-min Rain = 0
KFL1 191904Z 21007KT 02/M09 A3036 RMK A01 T00201088  RH  044%=      5-min Rain = 0
KFL1 191905Z 21007KT 02/M09 A3036 RMK A01 T00211088  RH  044%=      5-min Rain = 0
KFL1 191906Z 20008KT 02/M09 A3035 RMK A01 T00211086  RH  045%=      5-min Rain = 0
KFL1 191907Z 21007KT 02/M08 A3035 RMK A01 T00211082  RH  046%=      5-min Rain = 0
KFL1 191908Z 20007KT 02/M08 A3035 RMK A01 T00221082  RH  046%=      5-min Rain = 0.01
KFL1 191909Z 20008KT 02/M08 A3035 RMK A01 T00211084  RH  045%=      5-min Rain = 0
KFL1 191910Z 21007KT 02/M09 A3035 RMK A01 T00221088  RH  044%=      5-min Rain = 0
KFL1 191911Z 20006KT 02/M09 A3035 RMK A01 T00221088  RH  044%=      5-min Rain = 0
KFL1 191912Z 19005KT 02/M08 A3035 RMK A01 T00231082  RH  046%=      5-min Rain = 0
KFL1 191913Z 18005KT 03/M08 A3035 RMK A01 T00251080  RH  046%=      5-min Rain = 0
KFL1 191914Z 18006KT 03/M08 A3035 RMK A01 T00251078  RH  047%=      5-min Rain = 0
KFL1 191915Z 18007KT 03/M08 A3035 RMK A01 T00271078  RH  046%=      5-min Rain = 0
KFL1 191916Z 17005KT 03/M08 A3035 RMK A01 T00281084  RH  044%=      5-min Rain = 0
KFL1 191917Z 18006KT 03/M08 A3035 RMK A01 T00281083  RH  044%=      5-min Rain = 0
KFL1 191918Z 18009KT 03/M08 A3035 RMK A01 T00271083  RH  044%=      5-min Rain = 0
KFL1 191919Z 18008KT 03/M08 A3035 RMK A01 T00271084  RH  044%=      5-min Rain = 0
KFL1 191920Z 18009KT 03/M08 A3034 RMK A01 T00261082  RH  045%=      5-min Rain = 0
KFL1 191921Z 18008KT 03/M08 A3034 RMK A01 T00271081  RH  045%=      5-min Rain = 0.01
KFL1 191922Z 18007KT 03/M08 A3034 RMK A01 T00261083  RH  044%=      5-min Rain = 0
KFL1 191923Z 18007KT 03/M08 A3034 RMK A01 T00251083  RH  045%=      5-min Rain = 0
KFL1 191924Z 17007KT 03/M08 A3034 RMK A01 T00271080  RH  045%=      5-min Rain = 0
KFL1 191925Z 19005KT 03/M08 A3034 RMK A01 T00271075  RH  047%=      5-min Rain = 0
KFL1 191926Z 19006KT 03/M07 A3034 RMK A01 T00281072  RH  048%=      5-min Rain = 0
KFL1 191927Z 20006KT 03/M07 A3034 RMK A01 T00291072  RH  047%=      5-min Rain = 0
KFL1 191928Z 20005KT 03/M07 A3034 RMK A01 T00301074  RH  047%=      5-min Rain = 0
KFL1 191929Z 21006KT 03/M07 A3034 RMK A01 T00311073  RH  046%=      5-min Rain = 0
KFL1 191930Z 20005KT 03/M07 A3034 RMK A01 T00291073  RH  047%=      5-min Rain = 0
KFL1 191931Z 20005KT 03/M07 A3034 RMK A01 T00281073  RH  047%=      5-min Rain = 0.01
KFL1 191932Z 20006KT 03/M07 A3033 RMK A01 T00291070  RH  048%=      5-min Rain = 0
KFL1 191933Z 20005KT 03/M07 A3033 RMK A01 T00301070  RH  048%=      5-min Rain = 0
KFL1 191934Z 19005KT 03/M07 A3033 RMK A01 T00291072  RH  047%=      5-min Rain = 0
KFL1 191935Z 19006KT 03/M07 A3033 RMK A01 T00331068  RH  048%=      5-min Rain = 0
KFL1 191936Z 21005KT 03/M07 A3033 RMK A01 T00331069  RH  047%=      5-min Rain = 0
KFL1 191937Z 21006KT 03/M08 A3033 RMK A01 T00321075  RH  045%=      5-min Rain = 0
KFL1 191938Z 22005KT 03/M07 A3033 RMK A01 T00311072  RH  047%=      5-min Rain = 0
KFL1 191939Z 21005KT 03/M07 A3033 RMK A01 T00301071  RH  048%=      5-min Rain = 0
KFL1 191940Z 20004KT 03/M07 A3033 RMK A01 T00291073  RH  047%=      5-min Rain = 0
KFL1 191941Z 21005KT 03/M07 A3033 RMK A01 T00311071  RH  047%=      5-min Rain = 0
KFL1 191942Z 21006KT 03/M07 A3033 RMK A01 T00311071  RH  047%=      5-min Rain = 0
KFL1 191943Z 21005KT 03/M07 A3033 RMK A01 T00311070  RH  048%=      5-min Rain = 0
KFL1 191944Z 23005KT 03/M07 A3033 RMK A01 T00291070  RH  048%=      5-min Rain = 0.01
KFL1 191945Z 22006KT 03/M07 A3033 RMK A01 T00291068  RH  049%=      5-min Rain = 0
KFL1 191946Z 22005KT 03/M07 A3033 RMK A01 T00281068  RH  049%=      5-min Rain = 0
KFL1 191947Z 24006KT 03/M07 A3033 RMK A01 T00261068  RH  050%=      5-min Rain = 0
KFL1 191948Z 23005KT 03/M07 A3033 RMK A01 T00251071  RH  049%=      5-min Rain = 0
KFL1 191949Z 22005KT 03/M07 A3033 RMK A01 T00251071  RH  049%=      5-min Rain = 0
KFL1 191950Z 24006KT 03/M07 A3033 RMK A01 T00261068  RH  050%=      5-min Rain = 0
KFL1 191951Z 24004KT 03/M07 A3032 RMK A01 T00271068  RH  050%=      5-min Rain = 0
KFL1 191952Z 24004KT 03/M08 A3032 RMK A01 T00271075  RH  047%=      5-min Rain = 0.01
KFL1 191953Z 24006KT 03/M07 A3032 RMK A01 T00281074  RH  047%=      5-min Rain = 0
KFL1 191954Z 25008KT 03/M07 A3032 RMK A01 T00261073  RH  048%=      5-min Rain = 0
KFL1 191955Z 25007KT 03/M08 A3032 RMK A01 T00261077  RH  047%=      5-min Rain = 0
KFL1 191956Z 24006KT 03/M08 A3032 RMK A01 T00251079  RH  046%=      5-min Rain = 0
KFL1 191957Z 25006KT 03/M08 A3032 RMK A01 T00251084  RH  044%=      5-min Rain = 0
KFL1 191958Z 24005KT 03/M08 A3032 RMK A01 T00251084  RH  044%=      5-min Rain = 0
KFL1 191959Z 24005KT 03/M08 A3032 RMK A01 T00261083  RH  044%=      5-min Rain = 0
KFL1 192000Z 25006KT 03/M08 A3032 RMK A01 T00281082  RH  044%=      5-min Rain = 0
KFL1 192001Z 24004KT 03/M08 A3032 RMK A01 T00291077  RH  045%=      5-min Rain = 0
KFL1 192002Z 25004KT 03/M07 A3032 RMK A01 T00291069  RH  048%=      5-min Rain = 0
KFL1 192003Z 24005KT 03/M07 A3032 RMK A01 T00281072  RH  048%=      5-min Rain = 0
KFL1 192004Z 26006KT 03/M07 A3032 RMK A01 T00281073  RH  047%=      5-min Rain = 0
KFL1 192005Z 25007KT 03/M08 A3032 RMK A01 T00281077  RH  046%=      5-min Rain = 0.01
KFL1 192006Z 26008KT 03/M08 A3032 RMK A01 T00291084  RH  043%=      5-min Rain = 0
KFL1 192007Z 26006KT 03/M08 A3032 RMK A01 T00291084  RH  043%=      5-min Rain = 0
KFL1 192008Z 26008KT 03/M08 A3032 RMK A01 T00291081  RH  044%=      5-min Rain = 0
KFL1 192009Z 25006KT 03/M08 A3032 RMK A01 T00301081  RH  044%=      5-min Rain = 0
KFL1 192010Z 24006KT 03/M08 A3032 RMK A01 T00301081  RH  044%=      5-min Rain = 0
KFL1 192011Z 25005KT 03/M08 A3032 RMK A01 T00281084  RH  043%=      5-min Rain = 0
KFL1 192012Z 25004KT 03/M08 A3032 RMK A01 T00281082  RH  044%=      5-min Rain = 0
KFL1 192013Z 26004KT 03/M08 A3032 RMK A01 T00291081  RH  044%=      5-min Rain = 0
KFL1 192014Z 25005KT 03/M09 A3032 RMK A01 T00301086  RH  042%=      5-min Rain = 0
KFL1 192015Z 24004KT 03/M09 A3032 RMK A01 T00321085  RH  042%=      5-min Rain = 0.01
KFL1 192016Z 26004KT 03/M08 A3032 RMK A01 T00341078  RH  044%=      5-min Rain = 0
KFL1 192017Z 26006KT 03/M08 A3032 RMK A01 T00341081  RH  043%=      5-min Rain = 0
KFL1 192018Z 26006KT 03/M09 A3031 RMK A01 T00341085  RH  041%=      5-min Rain = 0
KFL1 192019Z 26007KT 03/M09 A3031 RMK A01 T00341087  RH  041%=      5-min Rain = 0
KFL1 192020Z 26004KT 03/M09 A3031 RMK A01 T00321085  RH  042%=      5-min Rain = 0
KFL1 192021Z 22004KT 03/M08 A3031 RMK A01 T00311084  RH  043%=      5-min Rain = 0
KFL1 192022Z 22005KT 04/M07 A3031 RMK A01 T00351074  RH  045%=      5-min Rain = 0
KFL1 192023Z 23005KT 04/M07 A3032 RMK A01 T00361073  RH  045%=      5-min Rain = 0
KFL1 192024Z 24004KT 04/M07 A3032 RMK A01 T00361074  RH  044%=      5-min Rain = 0
KFL1 192025Z 28009KT 04/M08 A3031 RMK A01 T00371079  RH  042%=      5-min Rain = 0
KFL1 192026Z 30008KT 03/M09 A3031 RMK A01 T00331087  RH  041%=      5-min Rain = 0
KFL1 192027Z 25008KT 03/M09 A3031 RMK A01 T00311087  RH  041%=      5-min Rain = 0.01
KFL1 192028Z 24007KT 03/M08 A3032 RMK A01 T00311082  RH  043%=      5-min Rain = 0
KFL1 192029Z 23006KT 03/M08 A3032 RMK A01 T00301082  RH  044%=      5-min Rain = 0
KFL1 192030Z 24006KT 03/M08 A3032 RMK A01 T00291076  RH  046%=      5-min Rain = 0
KFL1 192031Z 24008KT 03/M07 A3032 RMK A01 T00281070  RH  048%=      5-min Rain = 0
KFL1 192032Z 25006KT 03/M08 A3032 RMK A01 T00261076  RH  047%=      5-min Rain = 0
KFL1 192033Z 24006KT 03/M07 A3032 RMK A01 T00261074  RH  048%=      5-min Rain = 0
KFL1 192034Z 22006KT 03/M07 A3032 RMK A01 T00271065  RH  051%=      5-min Rain = 0
KFL1 192035Z 25005KT 03/M07 A3032 RMK A01 T00261067  RH  050%=      5-min Rain = 0
KFL1 192036Z 28006KT 03/M07 A3032 RMK A01 T00281074  RH  047%=      5-min Rain = 0.01
KFL1 192037Z 27005KT 03/M08 A3032 RMK A01 T00281081  RH  045%=      5-min Rain = 0
KFL1 192038Z 28007KT 03/M08 A3032 RMK A01 T00281082  RH  044%=      5-min Rain = 0
KFL1 192039Z 27008KT 03/M08 A3032 RMK A01 T00291078  RH  045%=      5-min Rain = 0
KFL1 192040Z 27006KT 03/M08 A3031 RMK A01 T00291076  RH  046%=      5-min Rain = 0
KFL1 192041Z 26005KT 03/M08 A3031 RMK A01 T00291075  RH  046%=      5-min Rain = 0
KFL1 192042Z 28005KT 03/M08 A3031 RMK A01 T00291075  RH  046%=      5-min Rain = 0
KFL1 192043Z 30006KT 03/M08 A3031 RMK A01 T00311077  RH  045%=      5-min Rain = 0
KFL1 192044Z 28006KT 03/M08 A3031 RMK A01 T00291076  RH  046%=      5-min Rain = 0
KFL1 192045Z 28007KT 03/M08 A3031 RMK A01 T00291078  RH  045%=      5-min Rain = 0
KFL1 192046Z 27007KT 03/M08 A3031 RMK A01 T00291080  RH  045%=      5-min Rain = 0
KFL1 192047Z 27008KT 03/M08 A3031 RMK A01 T00281080  RH  045%=      5-min Rain = 0
KFL1 192048Z 28009KT 03/M08 A3031 RMK A01 T00311078  RH  045%=      5-min Rain = 0
KFL1 192049Z 29009KT 03/M08 A3031 RMK A01 T00291079  RH  045%=      5-min Rain = 0
KFL1 192050Z 28008KT 03/M08 A3031 RMK A01 T00281078  RH  046%=      5-min Rain = 0
KFL1 192051Z 26008KT 03/M08 A303 RMK A01 T00271079  RH  045%=      5-min Rain = 0
KFL1 192052Z 27007KT 03/M08 A303 RMK A01 T00261078  RH  046%=      5-min Rain = 0.01
KFL1 192053Z 27008KT 03/M08 A303 RMK A01 T00281076  RH  046%=      5-min Rain = 0
KFL1 192054Z 26010KT 03/M08 A303 RMK A01 T00281077  RH  046%=      5-min Rain = 0
KFL1 192055Z 28008KT 03/M08 A303 RMK A01 T00281078  RH  046%=      5-min Rain = 0
KFL1 192056Z 30006KT 03/M08 A303 RMK A01 T00281075  RH  047%=      5-min Rain = 0
KFL1 192057Z 29007KT 03/M07 A303 RMK A01 T00281073  RH  048%=      5-min Rain = 0
KFL1 192058Z 29007KT 03/M08 A303 RMK A01 T00251078  RH  046%=      5-min Rain = 0
KFL1 192059Z 29006KT 03/M08 A303 RMK A01 T00261079  RH  046%=      5-min Rain = 0
KFL1 192100Z 31007KT 03/M08 A303 RMK A01 T00271079  RH  046%=      5-min Rain = 0
KFL1 192101Z 30007KT 03/M08 A303 RMK A01 T00281079  RH  045%=      5-min Rain = 0
KFL1 192102Z 29010KT 03/M08 A303 RMK A01 T00271077  RH  046%=      5-min Rain = 0
KFL1 192103Z 29008KT 03/M08 A303 RMK A01 T00281080  RH  045%=      5-min Rain = 0
KFL1 192104Z 30004KT 03/M08 A303 RMK A01 T00281083  RH  044%=      5-min Rain = 0
KFL1 192105Z 30006KT 03/M08 A303 RMK A01 T00291080  RH  045%=      5-min Rain = 0.01
KFL1 192106Z 27005KT 03/M08 A303 RMK A01 T00311075  RH  046%=      5-min Rain = 0
KFL1 192107Z 27008KT 03/M08 A303 RMK A01 T00331077  RH  044%=      5-min Rain = 0
KFL1 192108Z 28006KT 03/M08 A303 RMK A01 T00311083  RH  043%=      5-min Rain = 0
KFL1 192109Z 28005KT 03/M08 A303 RMK A01 T00311083  RH  043%=      5-min Rain = 0
KFL1 192110Z 27005KT 03/M08 A303 RMK A01 T00311080  RH  044%=      5-min Rain = 0
KFL1 192111Z 27003KT 03/M08 A303 RMK A01 T00331076  RH  045%=      5-min Rain = 0
KFL1 192112Z 26004KT 03/M08 A303 RMK A01 T00321078  RH  044%=      5-min Rain = 0
KFL1 192113Z 28003KT 04/M08 A303 RMK A01 T00351078  RH  043%=      5-min Rain = 0
KFL1 192114Z 27003KT 04/M08 A303 RMK A01 T00351080  RH  043%=      5-min Rain = 0
KFL1 192115Z 29005KT 04/M08 A303 RMK A01 T00361079  RH  043%=      5-min Rain = 0
KFL1 192116Z 29006KT 04/M08 A303 RMK A01 T00361080  RH  042%=      5-min Rain = 0
KFL1 192117Z 30006KT 03/M08 A303 RMK A01 T00341080  RH  043%=      5-min Rain = 0
KFL1 192118Z 30003KT 03/M09 A303 RMK A01 T00331085  RH  042%=      5-min Rain = 0
KFL1 192119Z 34001KT 04/M08 A3031 RMK A01 T00351080  RH  043%=      5-min Rain = 0
KFL1 192120Z 01001KT 04/M08 A3031 RMK A01 T00361081  RH  042%=      5-min Rain = 0
KFL1 192121Z 07001KT 04/M08 A3031 RMK A01 T00351081  RH  042%=      5-min Rain = 0
KFL1 192122Z 11003KT 04/M08 A3031 RMK A01 T00351079  RH  043%=      5-min Rain = 0.01
KFL1 192123Z 11004KT 04/M07 A3031 RMK A01 T00351074  RH  045%=      5-min Rain = 0
KFL1 192124Z 10005KT 03/M08 A3031 RMK A01 T00331076  RH  045%=      5-min Rain = 0
KFL1 192125Z 11006KT 03/M07 A3031 RMK A01 T00321072  RH  046%=      5-min Rain = 0
KFL1 192126Z 10006KT 03/M08 A3031 RMK A01 T00281076  RH  046%=      5-min Rain = 0
KFL1 192127Z 10005KT 02/M08 A3031 RMK A01 T00241081  RH  046%=      5-min Rain = 0
KFL1 192128Z 09007KT 02/M08 A303 RMK A01 T00211078  RH  048%=      5-min Rain = 0
KFL1 192129Z 09007KT 02/M07 A303 RMK A01 T00191074  RH  050%=      5-min Rain = 0
KFL1 192130Z 09005KT 02/M07 A303 RMK A01 T00191072  RH  051%=      5-min Rain = 0
KFL1 192131Z 10005KT 02/M07 A303 RMK A01 T00181072  RH  051%=      5-min Rain = 0
KFL1 192132Z 09005KT 02/M07 A303 RMK A01 T00191071  RH  051%=      5-min Rain = 0
KFL1 192133Z 10006KT 02/M07 A303 RMK A01 T00191068  RH  053%=      5-min Rain = 0
KFL1 192134Z 10005KT 02/M07 A303 RMK A01 T00191068  RH  052%=      5-min Rain = 0.01
KFL1 192135Z 09006KT 02/M07 A303 RMK A01 T00191069  RH  052%=      5-min Rain = 0
KFL1 192136Z 08008KT 02/M07 A3031 RMK A01 T00191072  RH  051%=      5-min Rain = 0
KFL1 192137Z 09007KT 02/M07 A3031 RMK A01 T00191072  RH  051%=      5-min Rain = 0
KFL1 192138Z 09005KT 02/M07 A3031 RMK A01 T00181074  RH  050%=      5-min Rain = 0
KFL1 192139Z 09005KT 02/M07 A3031 RMK A01 T00191070  RH  052%=      5-min Rain = 0
KFL1 192140Z 08005KT 02/M07 A3032 RMK A01 T00191071  RH  051%=      5-min Rain = 0
KFL1 192141Z 07005KT 02/M07 A3032 RMK A01 T00191070  RH  052%=      5-min Rain = 0
KFL1 192142Z 07004KT 02/M07 A3032 RMK A01 T00191071  RH  051%=      5-min Rain = 0
KFL1 192143Z 07003KT 02/M07 A3032 RMK A01 T00191071  RH  052%=      5-min Rain = 0
KFL1 192144Z 07005KT 02/M07 A3032 RMK A01 T00181071  RH  052%=      5-min Rain = 0
KFL1 192145Z 09005KT 02/M07 A3032 RMK A01 T00171072  RH  051%=      5-min Rain = 0
KFL1 192146Z 09006KT 02/M07 A3032 RMK A01 T00181071  RH  051%=      5-min Rain = 0
KFL1 192147Z 08006KT 02/M07 A3032 RMK A01 T00181069  RH  052%=      5-min Rain = 0
KFL1 192148Z 08006KT 02/M07 A3032 RMK A01 T00171073  RH  051%=      5-min Rain = 0
KFL1 192149Z 08007KT 02/M07 A3032 RMK A01 T00161073  RH  052%=      5-min Rain = 0
KFL1 192150Z 07006KT 02/M07 A3032 RMK A01 T00151074  RH  051%=      5-min Rain = 0
KFL1 192151Z 07006KT 02/M08 A3032 RMK A01 T00151075  RH  051%=      5-min Rain = 0
KFL1 192152Z 07005KT 01/M08 A3032 RMK A01 T00141076  RH  051%=      5-min Rain = 0
KFL1 192153Z 07005KT 02/M07 A3032 RMK A01 T00151074  RH  052%=      5-min Rain = 0
KFL1 192154Z 08004KT 01/M07 A3032 RMK A01 T00141071  RH  053%=      5-min Rain = 0.01
KFL1 192155Z 07004KT 01/M07 A3032 RMK A01 T00141073  RH  052%=      5-min Rain = 0
KFL1 192156Z 07007KT 01/M07 A3032 RMK A01 T00131068  RH  055%=      5-min Rain = 0
KFL1 192157Z 06005KT 01/M07 A3032 RMK A01 T00121072  RH  054%=      5-min Rain = 0
KFL1 192158Z 07006KT 01/M07 A3032 RMK A01 T00111074  RH  053%=      5-min Rain = 0
KFL1 192159Z 07006KT 01/M08 A3032 RMK A01 T00111076  RH  053%=      5-min Rain = 0
KFL1 192200Z 07005KT 01/M08 A3032 RMK A01 T00101076  RH  053%=      5-min Rain = 0
KFL1 192201Z 07005KT 01/M07 A3032 RMK A01 T00111074  RH  053%=      5-min Rain = 0
KFL1 192202Z 07005KT 01/M07 A3032 RMK A01 T00111074  RH  053%=      5-min Rain = 0
KFL1 192203Z 06005KT 01/M07 A3032 RMK A01 T00121072  RH  054%=      5-min Rain = 0
KFL1 192204Z 06006KT 01/M07 A3032 RMK A01 T00121074  RH  053%=      5-min Rain = 0
KFL1 192205Z 07006KT 01/M08 A3032 RMK A01 T00111075  RH  053%=      5-min Rain = 0
KFL1 192206Z 07006KT 01/M08 A3032 RMK A01 T00091077  RH  053%=      5-min Rain = 0
KFL1 192207Z 07006KT 01/M08 A3032 RMK A01 T00081076  RH  053%=      5-min Rain = 0
KFL1 192208Z 08007KT 01/M07 A3032 RMK A01 T00081073  RH  055%=      5-min Rain = 0
KFL1 192209Z 08005KT 01/M07 A3032 RMK A01 T00081074  RH  054%=      5-min Rain = 0
KFL1 192210Z 09004KT 01/M07 A3032 RMK A01 T00111068  RH  056%=      5-min Rain = 0.01
KFL1 192211Z 09004KT 01/M07 A3032 RMK A01 T00101070  RH  055%=      5-min Rain = 0
KFL1 192212Z 08004KT 01/M07 A3032 RMK A01 T00111073  RH  054%=      5-min Rain = 0
KFL1 192213Z 07003KT 01/M07 A3032 RMK A01 T00121074  RH  053%=      5-min Rain = 0
KFL1 192214Z 07004KT 01/M08 A3032 RMK A01 T00111076  RH  052%=      5-min Rain = 0
KFL1 192215Z 08006KT 01/M07 A3032 RMK A01 T00121073  RH  053%=      5-min Rain = 0
KFL1 192216Z 08005KT 01/M08 A3032 RMK A01 T00121075  RH  052%=      5-min Rain = 0
KFL1 192217Z 08005KT 01/M08 A3032 RMK A01 T00111076  RH  052%=      5-min Rain = 0
KFL1 192218Z 08005KT 01/M08 A3032 RMK A01 T00121075  RH  053%=      5-min Rain = 0
KFL1 192219Z 08004KT 01/M08 A3032 RMK A01 T00121076  RH  052%=      5-min Rain = 0
KFL1 192220Z 08004KT 01/M08 A3032 RMK A01 T00121075  RH  052%=      5-min Rain = 0
KFL1 192221Z 08003KT 01/M07 A3032 RMK A01 T00131073  RH  052%=      5-min Rain = 0
KFL1 192222Z 07003KT 01/M08 A3032 RMK A01 T00131076  RH  051%=      5-min Rain = 0
KFL1 192223Z 07002KT 01/M08 A3032 RMK A01 T00131077  RH  051%=      5-min Rain = 0
KFL1 192224Z 08003KT 01/M08 A3032 RMK A01 T00131076  RH  051%=      5-min Rain = 0
KFL1 192225Z 07003KT 01/M07 A3032 RMK A01 T00141071  RH  053%=      5-min Rain = 0
KFL1 192226Z 06003KT 01/M08 A3032 RMK A01 T00131076  RH  052%=      5-min Rain = 0
KFL1 192227Z 07001KT 01/M08 A3033 RMK A01 T00131078  RH  051%=      5-min Rain = 0
KFL1 192228Z 09001KT 02/M08 A3033 RMK A01 T00151076  RH  051%=      5-min Rain = 0
KFL1 192229Z 08002KT 02/M08 A3033 RMK A01 T00161076  RH  051%=      5-min Rain = 0
KFL1 192230Z 09003KT 02/M08 A3033 RMK A01 T00181076  RH  050%=      5-min Rain = 0
KFL1 192231Z 09004KT 02/M07 A3033 RMK A01 T00191074  RH  050%=      5-min Rain = 0
KFL1 192232Z 07004KT 02/M07 A3032 RMK A01 T00171065  RH  055%=      5-min Rain = 0
KFL1 192233Z 07004KT 01/M07 A3032 RMK A01 T00141068  RH  055%=      5-min Rain = 0
KFL1 192234Z 07005KT 02/M07 A3032 RMK A01 T00151071  RH  053%=      5-min Rain = 0
KFL1 192235Z 09005KT 01/M07 A3031 RMK A01 T00141070  RH  054%=      5-min Rain = 0
KFL1 192236Z 09005KT 01/M07 A3031 RMK A01 T00121068  RH  055%=      5-min Rain = 0
KFL1 192237Z 08006KT 01/M07 A3031 RMK A01 T00111069  RH  055%=      5-min Rain = 0
KFL1 192238Z 07004KT 01/M07 A3031 RMK A01 T00111069  RH  055%=      5-min Rain = 0
KFL1 192239Z 07006KT 01/M07 A3031 RMK A01 T00111071  RH  054%=      5-min Rain = 0.01
KFL1 192240Z 08006KT 01/M07 A3031 RMK A01 T00121072  RH  054%=      5-min Rain = 0
KFL1 192241Z 08005KT 01/M07 A3031 RMK A01 T00121066  RH  056%=      5-min Rain = 0
KFL1 192242Z 08006KT 01/M07 A3031 RMK A01 T00091070  RH  056%=      5-min Rain = 0
KFL1 192243Z 09005KT 01/M07 A3031 RMK A01 T00091071  RH  055%=      5-min Rain = 0
KFL1 192244Z 08005KT 01/M07 A3031 RMK A01 T00111071  RH  055%=      5-min Rain = 0
KFL1 192245Z 09005KT 01/M07 A3031 RMK A01 T00131069  RH  054%=      5-min Rain = 0
KFL1 192246Z 08006KT 01/M07 A3031 RMK A01 T00131071  RH  054%=      5-min Rain = 0
KFL1 192247Z 08005KT 01/M07 A3031 RMK A01 T00131070  RH  054%=      5-min Rain = 0
KFL1 192248Z 08005KT 01/M07 A3031 RMK A01 T00121066  RH  056%=      5-min Rain = 0
KFL1 192249Z 08004KT 01/M07 A3031 RMK A01 T00111067  RH  056%=      5-min Rain = 0
KFL1 192250Z 08006KT 01/M07 A3031 RMK A01 T00101068  RH  056%=      5-min Rain = 0
KFL1 192251Z 09007KT 01/M07 A3031 RMK A01 T00101067  RH  057%=      5-min Rain = 0
KFL1 192252Z 08005KT 01/M07 A3031 RMK A01 T00081066  RH  058%=      5-min Rain = 0
KFL1 192253Z 08005KT 01/M07 A3031 RMK A01 T00081067  RH  058%=      5-min Rain = 0
KFL1 192254Z 09007KT 01/M07 A3032 RMK A01 T00081070  RH  056%=      5-min Rain = 0
KFL1 192255Z 08008KT 01/M07 A3032 RMK A01 T00071072  RH  055%=      5-min Rain = 0
KFL1 192256Z 08006KT 01/M07 A3032 RMK A01 T00081071  RH  055%=      5-min Rain = 0
KFL1 192257Z 08007KT 01/M07 A3032 RMK A01 T00071069  RH  057%=      5-min Rain = 0
KFL1 192258Z 08006KT 01/M07 A3032 RMK A01 T00061069  RH  057%=      5-min Rain = 0
KFL1 192259Z 08007KT 01/M07 A3032 RMK A01 T00051071  RH  057%=      5-min Rain = 0
KFL1 192300Z 08006KT 01/M07 A3032 RMK A01 T00051071  RH  057%=      5-min Rain = 0
KFL1 192301Z 09006KT 01/M07 A3032 RMK A01 T00061068  RH  058%=      5-min Rain = 0
KFL1 192302Z 08005KT 00/M07 A3032 RMK A01 T00031070  RH  058%=      5-min Rain = 0
KFL1 192303Z 08007KT 00/M07 A3032 RMK A01 T00021071  RH  058%=      5-min Rain = 0
KFL1 192304Z 08007KT 00/07 A3032 RMK A01 T00000-71  RH  059%=      5-min Rain = 0
KFL1 192305Z 08007KT 00/07 A3032 RMK A01 T00-00-72  RH  058%=      5-min Rain = 0.01
KFL1 192306Z 08006KT M00/M07 A3032 RMK A01 T10011072  RH  059%=      5-min Rain = 0
KFL1 192307Z 09005KT M00/M07 A3032 RMK A01 T10021071  RH  060%=      5-min Rain = 0
KFL1 192308Z 09005KT M00/M07 A3032 RMK A01 T10021070  RH  060%=      5-min Rain = 0
KFL1 192309Z 10004KT M00/M07 A3032 RMK A01 T10031072  RH  060%=      5-min Rain = 0
KFL1 192310Z 09004KT M00/M07 A3032 RMK A01 T10021072  RH  059%=      5-min Rain = 0
KFL1 192311Z 10005KT M00/M07 A3033 RMK A01 T10021071  RH  060%=      5-min Rain = 0
KFL1 192312Z 10004KT M00/M07 A3033 RMK A01 T10031072  RH  060%=      5-min Rain = 0
KFL1 192313Z 11005KT M00/M07 A3033 RMK A01 T10041073  RH  059%=      5-min Rain = 0
KFL1 192314Z 11005KT M00/M07 A3033 RMK A01 T10041074  RH  059%=      5-min Rain = 0
KFL1 192315Z 11003KT M00/M08 A3033 RMK A01 T10041075  RH  058%=      5-min Rain = 0
KFL1 192316Z 11004KT M00/M07 A3033 RMK A01 T10031074  RH  059%=      5-min Rain = 0
KFL1 192317Z 10004KT M00/M08 A3033 RMK A01 T10031075  RH  058%=      5-min Rain = 0
KFL1 192318Z 11003KT M01/M08 A3033 RMK A01 T10051075  RH  059%=      5-min Rain = 0
KFL1 192319Z 12005KT M01/M08 A3033 RMK A01 T10071076  RH  060%=      5-min Rain = 0
KFL1 192320Z 11005KT M01/M07 A3033 RMK A01 T10071074  RH  061%=      5-min Rain = 0
KFL1 192321Z 10004KT M01/M07 A3033 RMK A01 T10071072  RH  061%=      5-min Rain = 0
KFL1 192322Z 10004KT M01/M07 A3033 RMK A01 T10081071  RH  062%=      5-min Rain = 0
KFL1 192323Z 09005KT M01/M07 A3033 RMK A01 T10071069  RH  063%=      5-min Rain = 0
KFL1 192324Z 10006KT M01/M07 A3033 RMK A01 T10081070  RH  063%=      5-min Rain = 0
KFL1 192325Z 09005KT M01/M07 A3033 RMK A01 T10081073  RH  061%=      5-min Rain = 0
KFL1 192326Z 09005KT M01/M07 A3033 RMK A01 T10081073  RH  061%=      5-min Rain = 0
KFL1 192327Z 09005KT M01/M07 A3033 RMK A01 T10081072  RH  062%=      5-min Rain = 0
KFL1 192328Z 10004KT M01/M07 A3033 RMK A01 T10081073  RH  062%=      5-min Rain = 0
KFL1 192329Z 10004KT M01/M07 A3033 RMK A01 T10081073  RH  061%=      5-min Rain = 0
KFL1 192330Z 10004KT M01/M07 A3033 RMK A01 T10081074  RH  061%=      5-min Rain = 0
KFL1 192331Z 10004KT M01/M07 A3033 RMK A01 T10081071  RH  062%=      5-min Rain = 0
KFL1 192332Z 10005KT M01/M07 A3032 RMK A01 T10101071  RH  063%=      5-min Rain = 0
KFL1 192333Z 10005KT M01/M07 A3032 RMK A01 T10121071  RH  064%=      5-min Rain = 0
KFL1 192334Z 11004KT M01/M07 A3032 RMK A01 T10121071  RH  064%=      5-min Rain = 0
KFL1 192335Z 10004KT M01/M07 A3033 RMK A01 T10121073  RH  063%=      5-min Rain = 0
KFL1 192336Z 09004KT M01/M07 A3033 RMK A01 T10121074  RH  063%=      5-min Rain = 0
KFL1 192337Z 11004KT M01/M07 A3033 RMK A01 T10111073  RH  063%=      5-min Rain = 0
KFL1 192338Z 09004KT M01/M07 A3033 RMK A01 T10121074  RH  063%=      5-min Rain = 0
KFL1 192339Z 08004KT M01/M07 A3033 RMK A01 T10111071  RH  064%=      5-min Rain = 0
KFL1 192340Z 09006KT M01/M07 A3033 RMK A01 T10131074  RH  063%=      5-min Rain = 0
KFL1 192341Z 09004KT M02/M08 A3033 RMK A01 T10151075  RH  064%=      5-min Rain = 0
KFL1 192342Z 09005KT M02/M08 A3033 RMK A01 T10151076  RH  063%=      5-min Rain = 0
KFL1 192343Z 09007KT M01/M07 A3033 RMK A01 T10141074  RH  064%=      5-min Rain = 0
KFL1 192344Z 09007KT M02/M07 A3033 RMK A01 T10151074  RH  064%=      5-min Rain = 0
KFL1 192345Z 08006KT M02/M07 A3033 RMK A01 T10171074  RH  065%=      5-min Rain = 0
KFL1 192346Z 08008KT M02/M07 A3032 RMK A01 T10181074  RH  065%=      5-min Rain = 0
KFL1 192347Z 09010KT M02/M07 A3032 RMK A01 T10181074  RH  065%=      5-min Rain = 0
KFL1 192348Z 08008KT M02/M08 A3032 RMK A01 T10191075  RH  066%=      5-min Rain = 0
KFL1 192349Z 08006KT M02/M07 A3033 RMK A01 T10201074  RH  066%=      5-min Rain = 0
KFL1 192350Z 08006KT M02/M07 A3033 RMK A01 T10201074  RH  066%=      5-min Rain = 0
KFL1 192351Z 08006KT M02/M07 A3033 RMK A01 T10201074  RH  066%=      5-min Rain = 0
KFL1 192352Z 07006KT M02/M07 A3033 RMK A01 T10201074  RH  067%=      5-min Rain = 0
KFL1 192353Z 07005KT M02/M07 A3033 RMK A01 T10211073  RH  067%=      5-min Rain = 0
KFL1 192354Z 08005KT M02/M08 A3033 RMK A01 T10221075  RH  067%=      5-min Rain = 0
KFL1 192355Z 07005KT M02/M07 A3033 RMK A01 T10201074  RH  066%=      5-min Rain = 0
KFL1 192356Z 06005KT M02/M07 A3033 RMK A01 T10201074  RH  066%=      5-min Rain = 0
KFL1 192357Z 06005KT M02/M07 A3033 RMK A01 T10201074  RH  066%=      5-min Rain = 0
KFL1 192358Z 07005KT M02/M08 A3033 RMK A01 T10211075  RH  066%=      5-min Rain = 0
KFL1 192359Z 06005KT M02/M08 A3033 RMK A01 T10211076  RH  066%=      5-min Rain = 0
KFL1 200000Z 06005KT M02/M08 A3033 RMK A01 T10211076  RH  066%=      5-min Rain = 0
KFL1 200001Z 06005KT M02/M08 A3033 RMK A01 T10211076  RH  066%=      5-min Rain = 0
KFL1 200002Z 06005KT M02/M08 A3033 RMK A01 T10221076  RH  067%=      5-min Rain = 0
KFL1 200003Z 06004KT M02/M08 A3033 RMK A01 T10211075  RH  067%=      5-min Rain = 0
KFL1 200004Z 06005KT M02/M08 A3033 RMK A01 T10211075  RH  067%=      5-min Rain = 0
KFL1 200005Z 06005KT M02/M08 A3033 RMK A01 T10221075  RH  067%=      5-min Rain = 0
KFL1 200006Z 06005KT M02/M08 A3033 RMK A01 T10221075  RH  067%=      5-min Rain = 0
KFL1 200007Z 06004KT M02/M08 A3033 RMK A01 T10221075  RH  067%=      5-min Rain = 0
KFL1 200008Z 06004KT M02/M08 A3033 RMK A01 T10231076  RH  067%=      5-min Rain = 0
KFL1 200009Z 05004KT M02/M08 A3033 RMK A01 T10241077  RH  067%=      5-min Rain = 0
KFL1 200010Z 05005KT M03/M08 A3033 RMK A01 T10251077  RH  067%=      5-min Rain = 0
KFL1 200011Z 05005KT M03/M08 A3033 RMK A01 T10251077  RH  067%=      5-min Rain = 0
KFL1 200012Z 05005KT M03/M08 A3033 RMK A01 T10251077  RH  067%=      5-min Rain = 0
KFL1 200013Z 04005KT M03/M08 A3033 RMK A01 T10251077  RH  067%=      5-min Rain = 0
KFL1 200014Z 04005KT M03/M08 A3033 RMK A01 T10251077  RH  067%=      5-min Rain = 0
KFL1 200015Z 05006KT M02/M08 A3033 RMK A01 T10241077  RH  067%=      5-min Rain = 0
KFL1 200016Z 05006KT M02/M08 A3033 RMK A01 T10231076  RH  067%=      5-min Rain = 0
KFL1 200017Z 05006KT M02/M07 A3033 RMK A01 T10221074  RH  067%=      5-min Rain = 0
KFL1 200018Z 05005KT M02/M08 A3033 RMK A01 T10231075  RH  068%=      5-min Rain = 0
KFL1 200019Z 05005KT M02/M08 A3033 RMK A01 T10241076  RH  067%=      5-min Rain = 0
KFL1 200020Z 07004KT M02/M08 A3032 RMK A01 T10241076  RH  067%=      5-min Rain = 0
KFL1 200021Z 06005KT M03/M08 A3032 RMK A01 T10251076  RH  068%=      5-min Rain = 0
KFL1 200022Z 06005KT M03/M08 A3033 RMK A01 T10261078  RH  067%=      5-min Rain = 0
KFL1 200023Z 05006KT M03/M08 A3033 RMK A01 T10291082  RH  067%=      5-min Rain = 0
KFL1 200024Z 05006KT M03/M08 A3033 RMK A01 T10291081  RH  067%=      5-min Rain = 0
KFL1 200025Z 05005KT M03/M08 A3033 RMK A01 T10311081  RH  068%=      5-min Rain = 0
KFL1 200026Z 04005KT M03/M08 A3033 RMK A01 T10301080  RH  069%=      5-min Rain = 0
KFL1 200027Z 05005KT M03/M08 A3033 RMK A01 T10291079  RH  069%=      5-min Rain = 0
KFL1 200028Z 06006KT M03/M08 A3033 RMK A01 T10281078  RH  069%=      5-min Rain = 0
KFL1 200029Z 06005KT M03/M08 A3033 RMK A01 T10271077  RH  068%=      5-min Rain = 0
KFL1 200030Z 05005KT M03/M08 A3033 RMK A01 T10291080  RH  068%=      5-min Rain = 0
KFL1 200031Z 05005KT M03/M08 A3033 RMK A01 T10291080  RH  068%=      5-min Rain = 0
KFL1 200032Z 05005KT M03/M08 A3033 RMK A01 T10311080  RH  069%=      5-min Rain = 0
KFL1 200033Z 06005KT M03/M08 A3033 RMK A01 T10301080  RH  069%=      5-min Rain = 0
KFL1 200034Z 05007KT M03/M08 A3033 RMK A01 T10291079  RH  068%=      5-min Rain = 0
KFL1 200035Z 05006KT M03/M08 A3033 RMK A01 T10301080  RH  068%=      5-min Rain = 0
KFL1 200036Z 05006KT M03/M08 A3033 RMK A01 T10311080  RH  069%=      5-min Rain = 0
KFL1 200037Z 05005KT M03/M08 A3033 RMK A01 T10291079  RH  069%=      5-min Rain = 0
KFL1 200038Z 06005KT M03/M08 A3033 RMK A01 T10301080  RH  068%=      5-min Rain = 0
KFL1 200039Z 07006KT M03/M08 A3033 RMK A01 T10291080  RH  068%=      5-min Rain = 0
KFL1 200040Z 06006KT M03/M08 A3033 RMK A01 T10291079  RH  068%=      5-min Rain = 0
KFL1 200041Z 05006KT M03/M08 A3033 RMK A01 T10281079  RH  068%=      5-min Rain = 0
KFL1 200042Z 03005KT M03/M08 A3033 RMK A01 T10291080  RH  068%=      5-min Rain = 0
KFL1 200043Z 03005KT M03/M08 A3033 RMK A01 T10291081  RH  067%=      5-min Rain = 0
KFL1 200044Z 03006KT M03/M08 A3033 RMK A01 T10291082  RH  067%=      5-min Rain = 0
KFL1 200045Z 04005KT M03/M08 A3033 RMK A01 T10281081  RH  067%=      5-min Rain = 0
KFL1 200046Z 05006KT M03/M08 A3033 RMK A01 T10281081  RH  067%=      5-min Rain = 0
KFL1 200047Z 04005KT M03/M08 A3033 RMK A01 T10281080  RH  067%=      5-min Rain = 0
KFL1 200048Z 04005KT M03/M08 A3033 RMK A01 T10261079  RH  067%=      5-min Rain = 0
KFL1 200049Z 05006KT M03/M08 A3033 RMK A01 T10251079  RH  067%=      5-min Rain = 0
KFL1 200050Z 05006KT M03/M08 A3033 RMK A01 T10271081  RH  066%=      5-min Rain = 0
KFL1 200051Z 04006KT M03/M08 A3033 RMK A01 T10281081  RH  067%=      5-min Rain = 0
KFL1 200052Z 04005KT M03/M08 A3033 RMK A01 T10281080  RH  067%=      5-min Rain = 0
KFL1 200053Z 04004KT M03/M08 A3034 RMK A01 T10281081  RH  067%=      5-min Rain = 0
KFL1 200054Z 04004KT M03/M08 A3034 RMK A01 T10281082  RH  067%=      5-min Rain = 0
KFL1 200055Z 05004KT M03/M08 A3034 RMK A01 T10271081  RH  067%=      5-min Rain = 0
KFL1 200056Z 05004KT M03/M09 A3034 RMK A01 T10301088  RH  064%=      5-min Rain = 0
KFL1 200057Z 06005KT M04/M09 A3034 RMK A01 T10361092  RH  065%=      5-min Rain = 0
KFL1 200058Z 06005KT M04/M09 A3034 RMK A01 T10371087  RH  069%=      5-min Rain = 0
KFL1 200059Z 06005KT M04/M08 A3034 RMK A01 T10361082  RH  070%=      5-min Rain = 0
KFL1 200100Z 06005KT M04/M08 A3034 RMK A01 T10351081  RH  070%=      5-min Rain = 0
KFL1 200101Z 06006KT M03/M08 A3033 RMK A01 T10341081  RH  070%=      5-min Rain = 0
KFL1 200102Z 07004KT M04/M08 A3033 RMK A01 T10351082  RH  070%=      5-min Rain = 0
KFL1 200103Z 06004KT M03/M08 A3033 RMK A01 T10341083  RH  069%=      5-min Rain = 0
KFL1 200104Z 06003KT M03/M08 A3033 RMK A01 T10331082  RH  068%=      5-min Rain = 0
KFL1 200105Z 05004KT M03/M08 A3033 RMK A01 T10331083  RH  068%=      5-min Rain = 0
KFL1 200106Z 04005KT M03/M08 A3033 RMK A01 T10331083  RH  068%=      5-min Rain = 0
KFL1 200107Z 04005KT M03/M08 A3033 RMK A01 T10331083  RH  068%=      5-min Rain = 0
KFL1 200108Z 05005KT M03/M08 A3033 RMK A01 T10321082  RH  068%=      5-min Rain = 0
KFL1 200109Z 05004KT M03/M08 A3033 RMK A01 T10311083  RH  068%=      5-min Rain = 0
KFL1 200110Z 04004KT M03/M08 A3033 RMK A01 T10291080  RH  068%=      5-min Rain = 0
KFL1 200111Z 03004KT M03/M08 A3033 RMK A01 T10301084  RH  066%=      5-min Rain = 0
KFL1 200112Z 03004KT M03/M09 A3034 RMK A01 T10331090  RH  065%=      5-min Rain = 0
KFL1 200113Z 04006KT M04/M09 A3034 RMK A01 T10381091  RH  066%=      5-min Rain = 0
KFL1 200114Z 05006KT M04/M09 A3034 RMK A01 T10381087  RH  068%=      5-min Rain = 0
KFL1 200115Z 05005KT M04/M08 A3034 RMK A01 T10361083  RH  070%=      5-min Rain = 0
KFL1 200116Z 05005KT M03/M08 A3034 RMK A01 T10341081  RH  070%=      5-min Rain = 0
KFL1 200117Z 05005KT M03/M08 A3034 RMK A01 T10331080  RH  070%=      5-min Rain = 0
KFL1 200118Z 05005KT M03/M08 A3034 RMK A01 T10311079  RH  069%=      5-min Rain = 0
KFL1 200119Z 04004KT M03/M08 A3034 RMK A01 T10291079  RH  068%=      5-min Rain = 0
KFL1 200120Z 05004KT M03/M08 A3034 RMK A01 T10291081  RH  068%=      5-min Rain = 0
KFL1 200121Z 05005KT M03/M09 A3034 RMK A01 T10311086  RH  066%=      5-min Rain = 0
KFL1 200122Z 06005KT M04/M09 A3034 RMK A01 T10351089  RH  066%=      5-min Rain = 0
KFL1 200123Z 06005KT M04/M09 A3034 RMK A01 T10381086  RH  069%=      5-min Rain = 0
KFL1 200124Z 06005KT M04/M08 A3034 RMK A01 T10371082  RH  071%=      5-min Rain = 0
KFL1 200125Z 05006KT M04/M08 A3034 RMK A01 T10361081  RH  071%=      5-min Rain = 0
KFL1 200126Z 05006KT M04/M08 A3034 RMK A01 T10351080  RH  071%=      5-min Rain = 0
KFL1 200127Z 05006KT M03/M08 A3033 RMK A01 T10311078  RH  070%=      5-min Rain = 0
KFL1 200128Z 05006KT M03/M08 A3033 RMK A01 T10301079  RH  069%=      5-min Rain = 0
KFL1 200129Z 05005KT M03/M08 A3033 RMK A01 T10321081  RH  069%=      5-min Rain = 0
KFL1 200130Z 05005KT M03/M08 A3034 RMK A01 T10321082  RH  069%=      5-min Rain = 0
KFL1 200131Z 04006KT M03/M08 A3034 RMK A01 T10331082  RH  069%=      5-min Rain = 0
KFL1 200132Z 04006KT M03/M08 A3034 RMK A01 T10321081  RH  069%=      5-min Rain = 0
KFL1 200133Z 04006KT M03/M08 A3034 RMK A01 T10311080  RH  069%=      5-min Rain = 0
KFL1 200134Z 05007KT M03/M08 A3034 RMK A01 T10311081  RH  069%=      5-min Rain = 0
KFL1 200135Z 05006KT M03/M08 A3034 RMK A01 T10301079  RH  069%=      5-min Rain = 0
KFL1 200136Z 05006KT M03/M08 A3034 RMK A01 T10281078  RH  069%=      5-min Rain = 0
KFL1 200137Z 05006KT M03/M08 A3034 RMK A01 T10281078  RH  069%=      5-min Rain = 0
KFL1 200138Z 05006KT M03/M08 A3034 RMK A01 T10281078  RH  068%=      5-min Rain = 0
KFL1 200139Z 05005KT M03/M08 A3034 RMK A01 T10291079  RH  068%=      5-min Rain = 0
KFL1 200140Z 05006KT M03/M08 A3034 RMK A01 T10281079  RH  068%=      5-min Rain = 0
KFL1 200141Z 06005KT M03/M08 A3034 RMK A01 T10301081  RH  068%=      5-min Rain = 0
KFL1 200142Z 05005KT M03/M08 A3034 RMK A01 T10301080  RH  068%=      5-min Rain = 0
KFL1 200143Z 05006KT M03/M08 A3034 RMK A01 T10301080  RH  068%=      5-min Rain = 0
KFL1 200144Z 05005KT M03/M08 A3034 RMK A01 T10291079  RH  068%=      5-min Rain = 0
KFL1 200145Z 05005KT M03/M08 A3033 RMK A01 T10291079  RH  068%=      5-min Rain = 0
KFL1 200146Z 05005KT M03/M08 A3033 RMK A01 T10291079  RH  069%=      5-min Rain = 0
KFL1 200147Z 04004KT M03/M08 A3034 RMK A01 T10291079  RH  069%=      5-min Rain = 0
KFL1 200148Z 04004KT M03/M08 A3034 RMK A01 T10291079  RH  068%=      5-min Rain = 0
KFL1 200149Z 05004KT M03/M08 A3033 RMK A01 T10301081  RH  068%=      5-min Rain = 0
KFL1 200150Z 05004KT M03/M09 A3033 RMK A01 T10331091  RH  064%=      5-min Rain = 0
KFL1 200151Z 04004KT M05/M11 A3033 RMK A01 T10501114  RH  061%=      5-min Rain = 0
KFL1 200152Z 04004KT M06/M12 A3033 RMK A01 T10601115  RH  065%=      5-min Rain = 0
KFL1 200153Z 04004KT M06/M11 A3033 RMK A01 T10641112  RH  069%=      5-min Rain = 0
KFL1 200154Z 05004KT M07/M11 A3033 RMK A01 T10661109  RH  072%=      5-min Rain = 0
KFL1 200155Z 05004KT M07/M11 A3033 RMK A01 T10691108  RH  073%=      5-min Rain = 0
KFL1 200156Z 04004KT M07/M11 A3033 RMK A01 T10711109  RH  074%=      5-min Rain = 0
KFL1 200157Z 04004KT M07/M11 A3033 RMK A01 T10741112  RH  074%=      5-min Rain = 0
KFL1 200158Z 04003KT M08/M11 A3033 RMK A01 T10761114  RH  074%=      5-min Rain = 0
KFL1 200159Z 04004KT M08/M12 A3033 RMK A01 T10791115  RH  075%=      5-min Rain = 0
KFL1 200200Z 04003KT M08/M11 A3034 RMK A01 T10801114  RH  077%=      5-min Rain = 0
KFL1 200201Z 04004KT M08/M11 A3034 RMK A01 T10801112  RH  078%=      5-min Rain = 0
KFL1 200202Z 04003KT M08/M12 A3034 RMK A01 T10821116  RH  077%=      5-min Rain = 0
KFL1 200203Z 06003KT M08/M11 A3034 RMK A01 T10831114  RH  079%=      5-min Rain = 0
KFL1 200204Z 06003KT M08/M11 A3034 RMK A01 T10811108  RH  081%=      5-min Rain = 0
KFL1 200205Z 06003KT M08/M11 A3034 RMK A01 T10771105  RH  081%=      5-min Rain = 0
KFL1 200206Z 06003KT M08/M10 A3034 RMK A01 T10761104  RH  080%=      5-min Rain = 0
KFL1 200207Z 05004KT M08/M10 A3034 RMK A01 T10751103  RH  080%=      5-min Rain = 0
KFL1 200208Z 05004KT M08/M11 A3034 RMK A01 T10751108  RH  077%=      5-min Rain = 0
KFL1 200209Z 06004KT M08/M11 A3034 RMK A01 T10781114  RH  076%=      5-min Rain = 0
KFL1 200210Z 06004KT M08/M11 A3034 RMK A01 T10791111  RH  078%=      5-min Rain = 0
KFL1 200211Z 06004KT M08/M11 A3034 RMK A01 T10781110  RH  078%=      5-min Rain = 0
KFL1 200212Z 06003KT M08/M10 A3034 RMK A01 T10751104  RH  080%=      5-min Rain = 0
KFL1 200213Z 06004KT M07/M10 A3034 RMK A01 T10721102  RH  079%=      5-min Rain = 0
KFL1 200214Z 05004KT M07/M11 A3035 RMK A01 T10711105  RH  077%=      5-min Rain = 0
KFL1 200215Z 05004KT M07/M11 A3035 RMK A01 T10731108  RH  076%=      5-min Rain = 0
KFL1 200216Z 05004KT M08/M11 A3034 RMK A01 T10751111  RH  076%=      5-min Rain = 0
KFL1 200217Z 05004KT M08/M11 A3034 RMK A01 T10761109  RH  077%=      5-min Rain = 0
KFL1 200218Z 05004KT M07/M10 A3034 RMK A01 T10721104  RH  078%=      5-min Rain = 0
KFL1 200219Z 05004KT M07/M10 A3034 RMK A01 T10701100  RH  079%=      5-min Rain = 0
KFL1 200220Z 06004KT M07/M10 A3034 RMK A01 T10661097  RH  079%=      5-min Rain = 0
KFL1 200221Z 06004KT M06/M10 A3034 RMK A01 T10631095  RH  078%=      5-min Rain = 0
KFL1 200222Z 05004KT M06/M10 A3034 RMK A01 T10601095  RH  076%=      5-min Rain = 0
KFL1 200223Z 05004KT M06/M10 A3034 RMK A01 T10581096  RH  075%=      5-min Rain = 0
KFL1 200224Z 05004KT M06/M10 A3034 RMK A01 T10591098  RH  074%=      5-min Rain = 0
KFL1 200225Z 05004KT M06/M10 A3034 RMK A01 T10591101  RH  073%=      5-min Rain = 0
KFL1 200226Z 05004KT M06/M10 A3034 RMK A01 T10611101  RH  073%=      5-min Rain = 0
KFL1 200227Z 06004KT M06/M10 A3034 RMK A01 T10601099  RH  074%=      5-min Rain = 0
KFL1 200228Z 05004KT M06/M10 A3034 RMK A01 T10581096  RH  075%=      5-min Rain = 0
KFL1 200229Z 04004KT M05/M09 A3034 RMK A01 T10531089  RH  076%=      5-min Rain = 0
KFL1 200230Z 04004KT M05/M09 A3034 RMK A01 T10481085  RH  076%=      5-min Rain = 0
KFL1 200231Z 04004KT M04/M09 A3034 RMK A01 T10441087  RH  072%=      5-min Rain = 0
KFL1 200232Z 04004KT M05/M10 A3034 RMK A01 T10501100  RH  068%=      5-min Rain = 0
KFL1 200233Z 04004KT M06/M11 A3034 RMK A01 T10591110  RH  067%=      5-min Rain = 0
KFL1 200234Z 04004KT M07/M12 A3034 RMK A01 T10651115  RH  068%=      5-min Rain = 0
KFL1 200235Z 04004KT M07/M11 A3034 RMK A01 T10681113  RH  070%=      5-min Rain = 0
KFL1 200236Z 04004KT M07/M11 A3034 RMK A01 T10721114  RH  072%=      5-min Rain = 0
KFL1 200237Z 05004KT M07/M11 A3035 RMK A01 T10731112  RH  074%=      5-min Rain = 0
KFL1 200238Z 05004KT M07/M11 A3035 RMK A01 T10741111  RH  075%=      5-min Rain = 0
KFL1 200239Z 04005KT M07/M11 A3035 RMK A01 T10731107  RH  076%=      5-min Rain = 0
KFL1 200240Z 04005KT M07/M10 A3035 RMK A01 T10701104  RH  077%=      5-min Rain = 0
KFL1 200241Z 05006KT M06/M09 A3035 RMK A01 T10631093  RH  079%=      5-min Rain = 0
KFL1 200242Z 05005KT M05/M09 A3035 RMK A01 T10541085  RH  079%=      5-min Rain = 0
KFL1 200243Z 04005KT M05/M08 A3035 RMK A01 T10481083  RH  076%=      5-min Rain = 0
KFL1 200244Z 04005KT M04/M08 A3035 RMK A01 T10431082  RH  074%=      5-min Rain = 0
KFL1 200245Z 05005KT M04/M08 A3035 RMK A01 T10411084  RH  072%=      5-min Rain = 0
KFL1 200246Z 04005KT M04/M09 A3035 RMK A01 T10421089  RH  070%=      5-min Rain = 0
KFL1 200247Z 04006KT M04/M09 A3035 RMK A01 T10431091  RH  069%=      5-min Rain = 0
KFL1 200248Z 04005KT M04/M09 A3035 RMK A01 T10431090  RH  070%=      5-min Rain = 0
KFL1 200249Z 04005KT M04/M09 A3035 RMK A01 T10431090  RH  070%=      5-min Rain = 0
KFL1 200250Z 04005KT M04/M09 A3035 RMK A01 T10441091  RH  070%=      5-min Rain = 0
KFL1 200251Z 04005KT M04/M09 A3035 RMK A01 T10431092  RH  069%=      5-min Rain = 0
KFL1 200252Z 04005KT M04/M09 A3035 RMK A01 T10441093  RH  069%=      5-min Rain = 0
KFL1 200253Z 04005KT M05/M10 A3035 RMK A01 T10491098  RH  068%=      5-min Rain = 0
KFL1 200254Z 04006KT M05/M10 A3036 RMK A01 T10511099  RH  069%=      5-min Rain = 0
KFL1 200255Z 04006KT M05/M10 A3036 RMK A01 T10521098  RH  070%=      5-min Rain = 0
KFL1 200256Z 04005KT M05/M10 A3035 RMK A01 T10531098  RH  071%=      5-min Rain = 0
KFL1 200257Z 04005KT M05/M10 A3035 RMK A01 T10521096  RH  071%=      5-min Rain = 0
KFL1 200258Z 03005KT M05/M10 A3036 RMK A01 T10511097  RH  070%=      5-min Rain = 0
KFL1 200259Z 04005KT M05/M10 A3036 RMK A01 T10541101  RH  069%=      5-min Rain = 0
KFL1 200300Z 04005KT M06/M11 A3036 RMK A01 T10581105  RH  070%=      5-min Rain = 0
KFL1 200301Z 04006KT M06/M10 A3035 RMK A01 T10581102  RH  071%=      5-min Rain = 0
KFL1 200302Z 04005KT M06/M10 A3035 RMK A01 T10581100  RH  072%=      5-min Rain = 0
KFL1 200303Z 04005KT M06/M10 A3035 RMK A01 T10561098  RH  072%=      5-min Rain = 0
KFL1 200304Z 04005KT M05/M10 A3035 RMK A01 T10541098  RH  071%=      5-min Rain = 0
KFL1 200305Z 04005KT M05/M10 A3035 RMK A01 T10531099  RH  070%=      5-min Rain = 0
KFL1 200306Z 04005KT M06/M10 A3035 RMK A01 T10561102  RH  070%=      5-min Rain = 0
KFL1 200307Z 04005KT M06/M10 A3035 RMK A01 T10581104  RH  070%=      5-min Rain = 0
KFL1 200308Z 04004KT M06/M11 A3035 RMK A01 T10611106  RH  070%=      5-min Rain = 0
KFL1 200309Z 05004KT M06/M11 A3035 RMK A01 T10621106  RH  071%=      5-min Rain = 0
KFL1 200310Z 04004KT M06/M10 A3035 RMK A01 T10611102  RH  073%=      5-min Rain = 0
KFL1 200311Z 04004KT M06/M10 A3035 RMK A01 T10571097  RH  074%=      5-min Rain = 0
KFL1 200312Z 05004KT M05/M09 A3035 RMK A01 T10541094  RH  074%=      5-min Rain = 0
KFL1 200313Z 04004KT M05/M09 A3035 RMK A01 T10511092  RH  073%=      5-min Rain = 0
KFL1 200314Z 04005KT M05/M09 A3035 RMK A01 T10481091  RH  072%=      5-min Rain = 0
KFL1 200315Z 04005KT M05/M09 A3035 RMK A01 T10491094  RH  070%=      5-min Rain = 0
KFL1 200316Z 04005KT M05/M09 A3035 RMK A01 T10471094  RH  070%=      5-min Rain = 0
KFL1 200317Z 04005KT M05/M10 A3035 RMK A01 T10471096  RH  069%=      5-min Rain = 0
KFL1 200318Z 04005KT M05/M10 A3035 RMK A01 T10471095  RH  069%=      5-min Rain = 0
KFL1 200319Z 04005KT M05/M09 A3035 RMK A01 T10461094  RH  069%=      5-min Rain = 0
KFL1 200320Z 03005KT M05/M09 A3035 RMK A01 T10451094  RH  069%=      5-min Rain = 0
KFL1 200321Z 03005KT M05/M10 A3035 RMK A01 T10471099  RH  067%=      5-min Rain = 0
KFL1 200322Z 04005KT M05/M10 A3035 RMK A01 T10501101  RH  067%=      5-min Rain = 0
KFL1 200323Z 04004KT M05/M10 A3035 RMK A01 T10511101  RH  068%=      5-min Rain = 0
KFL1 200324Z 04004KT M05/M10 A3035 RMK A01 T10541102  RH  069%=      5-min Rain = 0
KFL1 200325Z 04005KT M06/M10 A3036 RMK A01 T10571104  RH  069%=      5-min Rain = 0
KFL1 200326Z 04005KT M06/M10 A3035 RMK A01 T10581103  RH  071%=      5-min Rain = 0
KFL1 200327Z 04005KT M05/M10 A3035 RMK A01 T10541097  RH  072%=      5-min Rain = 0
KFL1 200328Z 04005KT M05/M10 A3035 RMK A01 T10531096  RH  072%=      5-min Rain = 0
KFL1 200329Z 03005KT M05/M10 A3035 RMK A01 T10521098  RH  070%=      5-min Rain = 0
KFL1 200330Z 03005KT M06/M10 A3035 RMK A01 T10551104  RH  068%=      5-min Rain = 0
KFL1 200331Z 03005KT M06/M11 A3035 RMK A01 T10601107  RH  069%=      5-min Rain = 0
KFL1 200332Z 03005KT M06/M11 A3035 RMK A01 T10611106  RH  071%=      5-min Rain = 0
KFL1 200333Z 03005KT M06/M11 A3036 RMK A01 T10621105  RH  071%=      5-min Rain = 0
KFL1 200334Z 03005KT M06/M11 A3036 RMK A01 T10631106  RH  071%=      5-min Rain = 0
KFL1 200335Z 03006KT M06/M11 A3036 RMK A01 T10641107  RH  072%=      5-min Rain = 0
KFL1 200336Z 03006KT M07/M11 A3036 RMK A01 T10691111  RH  071%=      5-min Rain = 0
KFL1 200337Z 03006KT M07/M11 A3036 RMK A01 T10711111  RH  073%=      5-min Rain = 0
KFL1 200338Z 03006KT M07/M12 A3036 RMK A01 T10731115  RH  072%=      5-min Rain = 0
KFL1 200339Z 03006KT M08/M12 A3036 RMK A01 T10791121  RH  072%=      5-min Rain = 0
KFL1 200340Z 03006KT M08/M12 A3036 RMK A01 T10801116  RH  075%=      5-min Rain = 0
KFL1 200341Z 03006KT M08/M11 A3036 RMK A01 T10781113  RH  076%=      5-min Rain = 0
KFL1 200342Z 03006KT M08/M11 A3036 RMK A01 T10751110  RH  076%=      5-min Rain = 0
KFL1 200343Z 03007KT M08/M11 A3036 RMK A01 T10751111  RH  075%=      5-min Rain = 0
KFL1 200344Z 03006KT M08/M11 A3036 RMK A01 T10751111  RH  075%=      5-min Rain = 0
KFL1 200345Z 04005KT M07/M11 A3036 RMK A01 T10731107  RH  077%=      5-min Rain = 0
KFL1 200346Z 03004KT M07/M10 A3036 RMK A01 T10651098  RH  077%=      5-min Rain = 0
KFL1 200347Z 03005KT M06/M10 A3036 RMK A01 T10621098  RH  075%=      5-min Rain = 0
KFL1 200348Z 03005KT M06/M10 A3036 RMK A01 T10601101  RH  073%=      5-min Rain = 0
KFL1 200349Z 03004KT M06/M10 A3036 RMK A01 T10591101  RH  072%=      5-min Rain = 0
KFL1 200350Z 03004KT M06/M10 A3036 RMK A01 T10591100  RH  073%=      5-min Rain = 0
KFL1 200351Z 03005KT M06/M10 A3036 RMK A01 T10581099  RH  073%=      5-min Rain = 0
KFL1 200352Z 03005KT M06/M10 A3036 RMK A01 T10571099  RH  073%=      5-min Rain = 0
KFL1 200353Z 03005KT M06/M10 A3036 RMK A01 T10581099  RH  073%=      5-min Rain = 0
KFL1 200354Z 03005KT M06/M10 A3036 RMK A01 T10571098  RH  072%=      5-min Rain = 0
KFL1 200355Z 04005KT M06/M10 A3036 RMK A01 T10581100  RH  072%=      5-min Rain = 0
KFL1 200356Z 05005KT M06/M10 A3036 RMK A01 T10591101  RH  072%=      5-min Rain = 0
KFL1 200357Z 04005KT M06/M10 A3036 RMK A01 T10611103  RH  072%=      5-min Rain = 0
KFL1 200358Z 04004KT M06/M11 A3036 RMK A01 T10631105  RH  072%=      5-min Rain = 0
KFL1 200359Z 03004KT M06/M10 A3036 RMK A01 T10631104  RH  073%=      5-min Rain = 0
KFL1 200400Z 03003KT M06/M10 A3036 RMK A01 T10631103  RH  073%=      5-min Rain = 0
KFL1 200401Z 02003KT M07/M12 A3036 RMK A01 T10711118  RH  069%=      5-min Rain = 0
KFL1 200402Z 03003KT M08/M13 A3036 RMK A01 T10791127  RH  069%=      5-min Rain = 0
KFL1 200403Z 04003KT M08/M13 A3036 RMK A01 T10841126  RH  071%=      5-min Rain = 0
KFL1 200404Z 05003KT M08/M12 A3036 RMK A01 T10841121  RH  075%=      5-min Rain = 0
KFL1 200405Z 05004KT M08/M11 A3036 RMK A01 T10811113  RH  078%=      5-min Rain = 0
KFL1 200406Z 04005KT M08/M11 A3036 RMK A01 T10791108  RH  080%=      5-min Rain = 0
KFL1 200407Z 04005KT M07/M10 A3036 RMK A01 T10731103  RH  079%=      5-min Rain = 0
KFL1 200408Z 04006KT M07/M10 A3036 RMK A01 T10691100  RH  079%=      5-min Rain = 0
KFL1 200409Z 04006KT M07/M10 A3036 RMK A01 T10671100  RH  077%=      5-min Rain = 0
KFL1 200410Z 04006KT M07/M10 A3036 RMK A01 T10661100  RH  076%=      5-min Rain = 0
KFL1 200411Z 04006KT M06/M10 A3036 RMK A01 T10641101  RH  076%=      5-min Rain = 0
KFL1 200412Z 04006KT M06/M10 A3036 RMK A01 T10621099  RH  075%=      5-min Rain = 0
KFL1 200413Z 04006KT M06/M10 A3036 RMK A01 T10611099  RH  074%=      5-min Rain = 0
KFL1 200414Z 04007KT M06/M10 A3036 RMK A01 T10611100  RH  074%=      5-min Rain = 0
KFL1 200415Z 04006KT M06/M10 A3036 RMK A01 T10611100  RH  074%=      5-min Rain = 0
KFL1 200416Z 04006KT M06/M10 A3036 RMK A01 T10611101  RH  074%=      5-min Rain = 0
KFL1 200417Z 04006KT M06/M10 A3036 RMK A01 T10601100  RH  073%=      5-min Rain = 0
KFL1 200418Z 04006KT M06/M10 A3036 RMK A01 T10591100  RH  072%=      5-min Rain = 0
KFL1 200419Z 03006KT M06/M10 A3036 RMK A01 T10571100  RH  072%=      5-min Rain = 0
KFL1 200420Z 04006KT M06/M10 A3036 RMK A01 T10581101  RH  072%=      5-min Rain = 0
KFL1 200421Z 04006KT M06/M10 A3036 RMK A01 T10581101  RH  072%=      5-min Rain = 0
KFL1 200422Z 03006KT M06/M10 A3036 RMK A01 T10581102  RH  071%=      5-min Rain = 0
KFL1 200423Z 03007KT M06/M11 A3036 RMK A01 T10611106  RH  070%=      5-min Rain = 0
KFL1 200424Z 03007KT M06/M11 A3036 RMK A01 T10631108  RH  071%=      5-min Rain = 0
KFL1 200425Z 03007KT M07/M11 A3036 RMK A01 T10661109  RH  071%=      5-min Rain = 0
KFL1 200426Z 04006KT M07/M11 A3036 RMK A01 T10691112  RH  071%=      5-min Rain = 0
KFL1 200427Z 04006KT M07/M12 A3036 RMK A01 T10721115  RH  072%=      5-min Rain = 0
KFL1 200428Z 04006KT M07/M12 A3036 RMK A01 T10741115  RH  073%=      5-min Rain = 0
KFL1 200429Z 04006KT M07/M11 A3036 RMK A01 T10721111  RH  073%=      5-min Rain = 0
KFL1 200430Z 04005KT M07/M11 A3036 RMK A01 T10691108  RH  074%=      5-min Rain = 0
KFL1 200431Z 03005KT M06/M10 A3036 RMK A01 T10631102  RH  074%=      5-min Rain = 0
KFL1 200432Z 03006KT M06/M10 A3036 RMK A01 T10611102  RH  073%=      5-min Rain = 0
KFL1 200433Z 03006KT M06/M10 A3036 RMK A01 T10591103  RH  071%=      5-min Rain = 0
KFL1 200434Z 03006KT M06/M11 A3036 RMK A01 T10621108  RH  070%=      5-min Rain = 0
KFL1 200435Z 03006KT M06/M11 A3036 RMK A01 T10631110  RH  070%=      5-min Rain = 0
KFL1 200436Z 03006KT M07/M12 A3036 RMK A01 T10701120  RH  067%=      5-min Rain = 0
KFL1 200437Z 03006KT M09/M14 A3036 RMK A01 T10851138  RH  066%=      5-min Rain = 0
KFL1 200438Z 03006KT M09/M14 A3036 RMK A01 T10931139  RH  069%=      5-min Rain = 0
KFL1 200439Z 03006KT M10/M14 A3036 RMK A01 T10951135  RH  073%=      5-min Rain = 0
KFL1 200440Z 03006KT M10/M14 A3036 RMK A01 T10971135  RH  074%=      5-min Rain = 0
KFL1 200441Z 03006KT M10/M14 A3036 RMK A01 T11011137  RH  075%=      5-min Rain = 0
KFL1 200442Z 03006KT M10/M14 A3036 RMK A01 T11041138  RH  076%=      5-min Rain = 0
KFL1 200443Z 02006KT M10/M14 A3036 RMK A01 T11041135  RH  078%=      5-min Rain = 0
KFL1 200444Z 02006KT M10/M13 A3036 RMK A01 T11041134  RH  078%=      5-min Rain = 0
KFL1 200445Z 02006KT M10/M14 A3036 RMK A01 T11041135  RH  078%=      5-min Rain = 0
KFL1 200446Z 02006KT M10/M13 A3036 RMK A01 T11041132  RH  080%=      5-min Rain = 0
KFL1 200447Z 02006KT M10/M13 A3036 RMK A01 T11001125  RH  082%=      5-min Rain = 0
KFL1 200448Z 03006KT M09/M12 A3036 RMK A01 T10941118  RH  083%=      5-min Rain = 0
KFL1 200449Z 03007KT M09/M12 A3036 RMK A01 T10901115  RH  082%=      5-min Rain = 0
KFL1 200450Z 03007KT M08/M11 A3036 RMK A01 T10841109  RH  082%=      5-min Rain = 0
KFL1 200451Z 03007KT M08/M11 A3036 RMK A01 T10821112  RH  079%=      5-min Rain = 0
KFL1 200452Z 03006KT M08/M11 A3036 RMK A01 T10801111  RH  078%=      5-min Rain = 0
KFL1 200453Z 03006KT M08/M11 A3036 RMK A01 T10791111  RH  078%=      5-min Rain = 0
KFL1 200454Z 04005KT M08/M11 A3036 RMK A01 T10751108  RH  077%=      5-min Rain = 0
KFL1 200455Z 04005KT M07/M11 A3036 RMK A01 T10731106  RH  077%=      5-min Rain = 0
KFL1 200456Z 03005KT M07/M11 A3036 RMK A01 T10741114  RH  073%=      5-min Rain = 0
KFL1 200457Z 03005KT M08/M12 A3036 RMK A01 T10791120  RH  072%=      5-min Rain = 0
KFL1 200458Z 02006KT M08/M12 A3036 RMK A01 T10821121  RH  074%=      5-min Rain = 0
KFL1 200459Z 02006KT M09/M13 A3036 RMK A01 T10871128  RH  073%=      5-min Rain = 0
KFL1 200500Z 03007KT M09/M12 A3036 RMK A01 T10881122  RH  076%=      5-min Rain = 0
KFL1 200501Z 03007KT M08/M11 A3036 RMK A01 T10771106  RH  080%=      5-min Rain = 0
KFL1 200502Z 03007KT M07/M10 A3036 RMK A01 T10691099  RH  079%=      5-min Rain = 0
KFL1 200503Z 03007KT M07/M10 A3036 RMK A01 T10661101  RH  076%=      5-min Rain = 0
KFL1 200504Z 03007KT M06/M10 A3036 RMK A01 T10631102  RH  074%=      5-min Rain = 0
KFL1 200505Z 03006KT M06/M10 A3036 RMK A01 T10601100  RH  074%=      5-min Rain = 0
KFL1 200506Z 03007KT M06/M10 A3036 RMK A01 T10581101  RH  072%=      5-min Rain = 0
KFL1 200507Z 03006KT M06/M11 A3036 RMK A01 T10621108  RH  070%=      5-min Rain = 0
KFL1 200508Z 03006KT M07/M11 A3036 RMK A01 T10681113  RH  070%=      5-min Rain = 0
KFL1 200509Z 03007KT M07/M11 A3036 RMK A01 T10711114  RH  071%=      5-min Rain = 0
KFL1 200510Z 03007KT M07/M11 A3036 RMK A01 T10721113  RH  073%=      5-min Rain = 0
KFL1 200511Z 03007KT M07/M11 A3036 RMK A01 T10741113  RH  073%=      5-min Rain = 0
KFL1 200512Z 03007KT M08/M11 A3036 RMK A01 T10761114  RH  074%=      5-min Rain = 0
KFL1 200513Z 03007KT M08/M11 A3036 RMK A01 T10761112  RH  075%=      5-min Rain = 0
KFL1 200514Z 03008KT M08/M11 A3036 RMK A01 T10751111  RH  076%=      5-min Rain = 0
KFL1 200515Z 03007KT M07/M11 A3036 RMK A01 T10741110  RH  076%=      5-min Rain = 0
KFL1 200516Z 03007KT M07/M11 A3036 RMK A01 T10741110  RH  075%=      5-min Rain = 0
KFL1 200517Z 02008KT M08/M11 A3036 RMK A01 T10761112  RH  075%=      5-min Rain = 0
KFL1 200518Z 02008KT M08/M11 A3036 RMK A01 T10751110  RH  076%=      5-min Rain = 0
KFL1 200519Z 03008KT M07/M11 A3036 RMK A01 T10731107  RH  076%=      5-min Rain = 0
KFL1 200520Z 03008KT M07/M11 A3035 RMK A01 T10711106  RH  076%=      5-min Rain = 0
KFL1 200521Z 03007KT M07/M11 A3035 RMK A01 T10701106  RH  076%=      5-min Rain = 0
KFL1 200522Z 04006KT M07/M11 A3035 RMK A01 T10701107  RH  075%=      5-min Rain = 0
KFL1 200523Z 03006KT M07/M11 A3036 RMK A01 T10691106  RH  075%=      5-min Rain = 0
KFL1 200524Z 02007KT M07/M11 A3036 RMK A01 T10681105  RH  075%=      5-min Rain = 0
KFL1 200525Z 03008KT M07/M11 A3036 RMK A01 T10691108  RH  074%=      5-min Rain = 0
KFL1 200526Z 03007KT M07/M11 A3036 RMK A01 T10681107  RH  074%=      5-min Rain = 0
KFL1 200527Z 03006KT M07/M11 A3036 RMK A01 T10671105  RH  075%=      5-min Rain = 0
KFL1 200528Z 03006KT M07/M11 A3035 RMK A01 T10671106  RH  074%=      5-min Rain = 0
KFL1 200529Z 03007KT M07/M11 A3035 RMK A01 T10681107  RH  074%=      5-min Rain = 0
KFL1 200530Z 03007KT M07/M10 A3035 RMK A01 T10651102  RH  075%=      5-min Rain = 0
KFL1 200531Z 03007KT M06/M10 A3035 RMK A01 T10601096  RH  075%=      5-min Rain = 0
KFL1 200532Z 03007KT M06/M10 A3035 RMK A01 T10571096  RH  074%=      5-min Rain = 0
KFL1 200533Z 03006KT M06/M10 A3036 RMK A01 T10571099  RH  072%=      5-min Rain = 0
KFL1 200534Z 04006KT M06/M10 A3036 RMK A01 T10591103  RH  071%=      5-min Rain = 0
KFL1 200535Z 04006KT M06/M10 A3036 RMK A01 T10591100  RH  073%=      5-min Rain = 0
KFL1 200536Z 03006KT M06/M10 A3036 RMK A01 T10591098  RH  074%=      5-min Rain = 0
KFL1 200537Z 03007KT M06/M10 A3036 RMK A01 T10571096  RH  074%=      5-min Rain = 0
KFL1 200538Z 04007KT M06/M10 A3036 RMK A01 T10571098  RH  073%=      5-min Rain = 0
KFL1 200539Z 04007KT M06/M10 A3036 RMK A01 T10581097  RH  074%=      5-min Rain = 0
KFL1 200540Z 03006KT M06/M09 A3036 RMK A01 T10561094  RH  075%=      5-min Rain = 0
KFL1 200541Z 03007KT M06/M10 A3036 RMK A01 T10561095  RH  074%=      5-min Rain = 0
KFL1 200542Z 04006KT M06/M10 A3036 RMK A01 T10551095  RH  074%=      5-min Rain = 0
KFL1 200543Z 03006KT M06/M09 A3036 RMK A01 T10551094  RH  074%=      5-min Rain = 0
KFL1 200544Z 03007KT M05/M09 A3036 RMK A01 T10541094  RH  074%=      5-min Rain = 0
KFL1 200545Z 03006KT M05/M10 A3036 RMK A01 T10531095  RH  072%=      5-min Rain = 0
KFL1 200546Z 05006KT M05/M10 A3036 RMK A01 T10541098  RH  071%=      5-min Rain = 0
KFL1 200547Z 05006KT M06/M10 A3036 RMK A01 T10551096  RH  073%=      5-min Rain = 0
KFL1 200548Z 04007KT M06/M10 A3036 RMK A01 T10551095  RH  073%=      5-min Rain = 0
KFL1 200549Z 04008KT M05/M10 A3036 RMK A01 T10541095  RH  073%=      5-min Rain = 0
KFL1 200550Z 05008KT M05/M09 A3036 RMK A01 T10531094  RH  073%=      5-min Rain = 0
KFL1 200551Z 05008KT M05/M09 A3036 RMK A01 T10521093  RH  073%=      5-min Rain = 0
KFL1 200552Z 04007KT M05/M09 A3036 RMK A01 T10511092  RH  073%=      5-min Rain = 0
KFL1 200553Z 03008KT M05/M09 A3036 RMK A01 T10521093  RH  072%=      5-min Rain = 0
KFL1 200554Z 03008KT M05/M09 A3036 RMK A01 T10501092  RH  072%=      5-min Rain = 0
KFL1 200555Z 03008KT M05/M09 A3036 RMK A01 T10491092  RH  072%=      5-min Rain = 0
KFL1 200556Z 04007KT M05/M09 A3036 RMK A01 T10481091  RH  071%=      5-min Rain = 0
KFL1 200557Z 04007KT M05/M09 A3036 RMK A01 T10471091  RH  071%=      5-min Rain = 0
KFL1 200558Z 03007KT M04/M09 A3036 RMK A01 T10441088  RH  072%=      5-min Rain = 0
KFL1 200559Z 04006KT M04/M09 A3036 RMK A01 T10421086  RH  071%=      5-min Rain = 0

Page generated in 0.1251 seconds.